<?xml version="1.0" encoding="UTF-8" standalone="no" ?>
<gpx xmlns="http://www.topografix.com/GPX/1/1" xmlns:xsi="http://www.w3.org/2001/XMLSchema-instance" xsi:schemaLocation="http://www.topografix.com/GPX/1/1 http://www.topografix.com/GPX/1/1/gpx.xsd" version="1.1" creator="VisuGPX - https://www.visugpx.com">
  <metadata>
    <name>2015-12-28 Crête du Mont Beauvoir</name>
    <desc><![CDATA[A la recherche de sentes perdues ...]]></desc>
  </metadata>
  <trk>
    <name><![CDATA[2015-12-28 Crête Mont Beauvoir]]></name>
    <trkseg>
      <trkpt lat="45.47668" lon="5.76487">
        <ele>577</ele>
        <time>2015-12-28T09:02:41Z</time>
      </trkpt>
      <trkpt lat="45.47667" lon="5.76479">
        <ele>577</ele>
        <time>2015-12-28T09:02:46Z</time>
      </trkpt>
      <trkpt lat="45.47677" lon="5.76489">
        <ele>569.303612482</ele>
        <time>2015-12-28T09:02:57Z</time>
      </trkpt>
      <trkpt lat="45.47683" lon="5.76495">
        <ele>569.303612482</ele>
        <time>2015-12-28T09:03:02Z</time>
      </trkpt>
      <trkpt lat="45.47688" lon="5.76498">
        <ele>574.088858609</ele>
        <time>2015-12-28T09:03:12Z</time>
      </trkpt>
      <trkpt lat="45.47699" lon="5.76509">
        <ele>576.979360706</ele>
        <time>2015-12-28T09:03:17Z</time>
      </trkpt>
      <trkpt lat="45.47696" lon="5.76522">
        <ele>580.343627315</ele>
        <time>2015-12-28T09:03:27Z</time>
      </trkpt>
      <trkpt lat="45.47697" lon="5.76529">
        <ele>580.343627315</ele>
        <time>2015-12-28T09:03:32Z</time>
      </trkpt>
      <trkpt lat="45.47695" lon="5.76544">
        <ele>584.257421598</ele>
        <time>2015-12-28T09:03:42Z</time>
      </trkpt>
      <trkpt lat="45.47696" lon="5.76549">
        <ele>584.257421598</ele>
        <time>2015-12-28T09:03:47Z</time>
      </trkpt>
      <trkpt lat="45.47691" lon="5.76564">
        <ele>588.202358167</ele>
        <time>2015-12-28T09:03:57Z</time>
      </trkpt>
      <trkpt lat="45.47693" lon="5.76572">
        <ele>588.202358167</ele>
        <time>2015-12-28T09:04:02Z</time>
      </trkpt>
      <trkpt lat="45.47691" lon="5.76593">
        <ele>592.435612145</ele>
        <time>2015-12-28T09:04:12Z</time>
      </trkpt>
      <trkpt lat="45.47691" lon="5.76602">
        <ele>592.435612145</ele>
        <time>2015-12-28T09:04:17Z</time>
      </trkpt>
      <trkpt lat="45.47692" lon="5.76615">
        <ele>597.166176979</ele>
        <time>2015-12-28T09:04:27Z</time>
      </trkpt>
      <trkpt lat="45.47694" lon="5.76621">
        <ele>597.166176979</ele>
        <time>2015-12-28T09:04:31Z</time>
      </trkpt>
      <trkpt lat="45.47693" lon="5.76624">
        <ele>597.166176979</ele>
        <time>2015-12-28T09:04:36Z</time>
      </trkpt>
      <trkpt lat="45.47694" lon="5.76647">
        <ele>602.612628413</ele>
        <time>2015-12-28T09:04:46Z</time>
      </trkpt>
      <trkpt lat="45.47696" lon="5.76655">
        <ele>602.612628413</ele>
        <time>2015-12-28T09:04:52Z</time>
      </trkpt>
      <trkpt lat="45.47697" lon="5.76674">
        <ele>608.178152254</ele>
        <time>2015-12-28T09:05:02Z</time>
      </trkpt>
      <trkpt lat="45.47696" lon="5.7668">
        <ele>608.178152254</ele>
        <time>2015-12-28T09:05:07Z</time>
      </trkpt>
      <trkpt lat="45.47697" lon="5.76691">
        <ele>613.513250342</ele>
        <time>2015-12-28T09:05:17Z</time>
      </trkpt>
      <trkpt lat="45.47697" lon="5.76698">
        <ele>613.513250342</ele>
        <time>2015-12-28T09:05:22Z</time>
      </trkpt>
      <trkpt lat="45.47697" lon="5.76715">
        <ele>617.967121633</ele>
        <time>2015-12-28T09:05:32Z</time>
      </trkpt>
      <trkpt lat="45.47696" lon="5.76725">
        <ele>617.967121633</ele>
        <time>2015-12-28T09:05:37Z</time>
      </trkpt>
      <trkpt lat="45.47696" lon="5.76744">
        <ele>622.451073313</ele>
        <time>2015-12-28T09:05:47Z</time>
      </trkpt>
      <trkpt lat="45.47695" lon="5.76752">
        <ele>622.451073313</ele>
        <time>2015-12-28T09:05:52Z</time>
      </trkpt>
      <trkpt lat="45.47693" lon="5.76766">
        <ele>626.971262434</ele>
        <time>2015-12-28T09:06:02Z</time>
      </trkpt>
      <trkpt lat="45.47692" lon="5.76773">
        <ele>626.971262434</ele>
        <time>2015-12-28T09:06:07Z</time>
      </trkpt>
      <trkpt lat="45.47693" lon="5.76789">
        <ele>631.035112314</ele>
        <time>2015-12-28T09:06:17Z</time>
      </trkpt>
      <trkpt lat="45.47695" lon="5.76794">
        <ele>631.035112314</ele>
        <time>2015-12-28T09:06:22Z</time>
      </trkpt>
      <trkpt lat="45.47697" lon="5.76801">
        <ele>635.68812295</ele>
        <time>2015-12-28T09:06:32Z</time>
      </trkpt>
      <trkpt lat="45.47697" lon="5.76813">
        <ele>635.68812295</ele>
        <time>2015-12-28T09:06:37Z</time>
      </trkpt>
      <trkpt lat="45.47705" lon="5.76835">
        <ele>640.059634254</ele>
        <time>2015-12-28T09:06:52Z</time>
      </trkpt>
      <trkpt lat="45.47705" lon="5.76838">
        <ele>640.059634254</ele>
        <time>2015-12-28T09:06:56Z</time>
      </trkpt>
      <trkpt lat="45.47712" lon="5.76861">
        <ele>645.316140821</ele>
        <time>2015-12-28T09:07:07Z</time>
      </trkpt>
      <trkpt lat="45.47714" lon="5.76866">
        <ele>645.316140821</ele>
        <time>2015-12-28T09:07:12Z</time>
      </trkpt>
      <trkpt lat="45.47721" lon="5.76881">
        <ele>651.358959442</ele>
        <time>2015-12-28T09:07:22Z</time>
      </trkpt>
      <trkpt lat="45.47722" lon="5.76884">
        <ele>651.358959442</ele>
        <time>2015-12-28T09:07:26Z</time>
      </trkpt>
      <trkpt lat="45.47732" lon="5.76906">
        <ele>657.623118709</ele>
        <time>2015-12-28T09:07:37Z</time>
      </trkpt>
      <trkpt lat="45.47737" lon="5.7692">
        <ele>663.305593881</ele>
        <time>2015-12-28T09:07:42Z</time>
      </trkpt>
      <trkpt lat="45.47744" lon="5.76934">
        <ele>668.47119089</ele>
        <time>2015-12-28T09:07:52Z</time>
      </trkpt>
      <trkpt lat="45.47745" lon="5.76944">
        <ele>668.47119089</ele>
        <time>2015-12-28T09:07:57Z</time>
      </trkpt>
      <trkpt lat="45.47746" lon="5.76958">
        <ele>673.478119917</ele>
        <time>2015-12-28T09:08:07Z</time>
      </trkpt>
      <trkpt lat="45.47747" lon="5.76963">
        <ele>673.478119917</ele>
        <time>2015-12-28T09:08:12Z</time>
      </trkpt>
      <trkpt lat="45.47752" lon="5.76984">
        <ele>678.04842876</ele>
        <time>2015-12-28T09:08:22Z</time>
      </trkpt>
      <trkpt lat="45.47755" lon="5.76988">
        <ele>678.04842876</ele>
        <time>2015-12-28T09:08:27Z</time>
      </trkpt>
      <trkpt lat="45.4776" lon="5.77005">
        <ele>682.958008555</ele>
        <time>2015-12-28T09:08:42Z</time>
      </trkpt>
      <trkpt lat="45.47763" lon="5.77011">
        <ele>682.958008555</ele>
        <time>2015-12-28T09:08:47Z</time>
      </trkpt>
      <trkpt lat="45.47769" lon="5.7702">
        <ele>687.882028078</ele>
        <time>2015-12-28T09:08:57Z</time>
      </trkpt>
      <trkpt lat="45.4777" lon="5.77024">
        <ele>687.882028078</ele>
        <time>2015-12-28T09:09:02Z</time>
      </trkpt>
      <trkpt lat="45.47774" lon="5.77034">
        <ele>692.532464052</ele>
        <time>2015-12-28T09:09:12Z</time>
      </trkpt>
      <trkpt lat="45.47776" lon="5.77035">
        <ele>692.532464052</ele>
        <time>2015-12-28T09:09:17Z</time>
      </trkpt>
      <trkpt lat="45.4778" lon="5.77045">
        <ele>697.074894733</ele>
        <time>2015-12-28T09:09:27Z</time>
      </trkpt>
      <trkpt lat="45.47785" lon="5.7705">
        <ele>697.074894733</ele>
        <time>2015-12-28T09:09:32Z</time>
      </trkpt>
      <trkpt lat="45.47793" lon="5.77061">
        <ele>700.535721163</ele>
        <time>2015-12-28T09:09:42Z</time>
      </trkpt>
      <trkpt lat="45.47795" lon="5.77068">
        <ele>700.535721163</ele>
        <time>2015-12-28T09:09:47Z</time>
      </trkpt>
      <trkpt lat="45.47796" lon="5.77077">
        <ele>703.285219404</ele>
        <time>2015-12-28T09:09:57Z</time>
      </trkpt>
      <trkpt lat="45.47796" lon="5.77081">
        <ele>703.285219404</ele>
        <time>2015-12-28T09:10:01Z</time>
      </trkpt>
      <trkpt lat="45.47796" lon="5.77092">
        <ele>706.351821879</ele>
        <time>2015-12-28T09:10:12Z</time>
      </trkpt>
      <trkpt lat="45.478" lon="5.77096">
        <ele>706.351821879</ele>
        <time>2015-12-28T09:10:17Z</time>
      </trkpt>
      <trkpt lat="45.47808" lon="5.77105">
        <ele>710.541299643</ele>
        <time>2015-12-28T09:10:27Z</time>
      </trkpt>
      <trkpt lat="45.4781" lon="5.77109">
        <ele>710.541299643</ele>
        <time>2015-12-28T09:10:32Z</time>
      </trkpt>
      <trkpt lat="45.4781" lon="5.77115">
        <ele>710.541299643</ele>
        <time>2015-12-28T09:10:36Z</time>
      </trkpt>
      <trkpt lat="45.47808" lon="5.77127">
        <ele>713.410408595</ele>
        <time>2015-12-28T09:10:47Z</time>
      </trkpt>
      <trkpt lat="45.47805" lon="5.77128">
        <ele>713.410408595</ele>
        <time>2015-12-28T09:10:52Z</time>
      </trkpt>
      <trkpt lat="45.47791" lon="5.77133">
        <ele>715.883811262</ele>
        <time>2015-12-28T09:11:01Z</time>
      </trkpt>
      <trkpt lat="45.47788" lon="5.77138">
        <ele>715.883811262</ele>
        <time>2015-12-28T09:11:07Z</time>
      </trkpt>
      <trkpt lat="45.47776" lon="5.7714">
        <ele>718.825353094</ele>
        <time>2015-12-28T09:11:17Z</time>
      </trkpt>
      <trkpt lat="45.47773" lon="5.77142">
        <ele>718.825353094</ele>
        <time>2015-12-28T09:11:22Z</time>
      </trkpt>
      <trkpt lat="45.47767" lon="5.77146">
        <ele>722.347814162</ele>
        <time>2015-12-28T09:11:32Z</time>
      </trkpt>
      <trkpt lat="45.47764" lon="5.77145">
        <ele>722.347814162</ele>
        <time>2015-12-28T09:11:36Z</time>
      </trkpt>
      <trkpt lat="45.4775" lon="5.77143">
        <ele>725.995503142</ele>
        <time>2015-12-28T09:11:48Z</time>
      </trkpt>
      <trkpt lat="45.47745" lon="5.77144">
        <ele>725.995503142</ele>
        <time>2015-12-28T09:11:52Z</time>
      </trkpt>
      <trkpt lat="45.47728" lon="5.77146">
        <ele>729.763272674</ele>
        <time>2015-12-28T09:12:07Z</time>
      </trkpt>
      <trkpt lat="45.47714" lon="5.77141">
        <ele>732.361889269</ele>
        <time>2015-12-28T09:12:12Z</time>
      </trkpt>
      <trkpt lat="45.47702" lon="5.77136">
        <ele>735.157076927</ele>
        <time>2015-12-28T09:12:22Z</time>
      </trkpt>
      <trkpt lat="45.47701" lon="5.77137">
        <ele>735.157076927</ele>
        <time>2015-12-28T09:12:27Z</time>
      </trkpt>
      <trkpt lat="45.47682" lon="5.77122">
        <ele>737.854799315</ele>
        <time>2015-12-28T09:12:36Z</time>
      </trkpt>
      <trkpt lat="45.47673" lon="5.77121">
        <ele>739.885064</ele>
        <time>2015-12-28T09:12:42Z</time>
      </trkpt>
      <trkpt lat="45.47663" lon="5.77116">
        <ele>742.176733247</ele>
        <time>2015-12-28T09:12:52Z</time>
      </trkpt>
      <trkpt lat="45.47658" lon="5.77112">
        <ele>742.176733247</ele>
        <time>2015-12-28T09:12:57Z</time>
      </trkpt>
      <trkpt lat="45.47643" lon="5.77112">
        <ele>744.723647602</ele>
        <time>2015-12-28T09:13:07Z</time>
      </trkpt>
      <trkpt lat="45.47639" lon="5.77108">
        <ele>744.723647602</ele>
        <time>2015-12-28T09:13:12Z</time>
      </trkpt>
      <trkpt lat="45.47632" lon="5.77106">
        <ele>747.518301302</ele>
        <time>2015-12-28T09:13:22Z</time>
      </trkpt>
      <trkpt lat="45.47624" lon="5.771">
        <ele>749.955848174</ele>
        <time>2015-12-28T09:13:28Z</time>
      </trkpt>
      <trkpt lat="45.47614" lon="5.77095">
        <ele>752.516275069</ele>
        <time>2015-12-28T09:13:39Z</time>
      </trkpt>
      <trkpt lat="45.47606" lon="5.77093">
        <ele>752.516275069</ele>
        <time>2015-12-28T09:13:41Z</time>
      </trkpt>
      <trkpt lat="45.47601" lon="5.77092">
        <ele>754.14803029</ele>
        <time>2015-12-28T09:13:52Z</time>
      </trkpt>
      <trkpt lat="45.4759" lon="5.77087">
        <ele>755.37750258</ele>
        <time>2015-12-28T09:13:57Z</time>
      </trkpt>
      <trkpt lat="45.47576" lon="5.77079">
        <ele>756.99897862</ele>
        <time>2015-12-28T09:14:11Z</time>
      </trkpt>
      <trkpt lat="45.47568" lon="5.77077">
        <ele>756.99897862</ele>
        <time>2015-12-28T09:14:17Z</time>
      </trkpt>
      <trkpt lat="45.47545" lon="5.77072">
        <ele>758.239196566</ele>
        <time>2015-12-28T09:14:28Z</time>
      </trkpt>
      <trkpt lat="45.47542" lon="5.7707">
        <ele>758.239196566</ele>
        <time>2015-12-28T09:14:32Z</time>
      </trkpt>
      <trkpt lat="45.47527" lon="5.7706">
        <ele>760.34501977</ele>
        <time>2015-12-28T09:14:42Z</time>
      </trkpt>
      <trkpt lat="45.47519" lon="5.77058">
        <ele>760.34501977</ele>
        <time>2015-12-28T09:14:48Z</time>
      </trkpt>
      <trkpt lat="45.47504" lon="5.77053">
        <ele>762.95518505</ele>
        <time>2015-12-28T09:14:57Z</time>
      </trkpt>
      <trkpt lat="45.47494" lon="5.77051">
        <ele>764.827651542</ele>
        <time>2015-12-28T09:15:02Z</time>
      </trkpt>
      <trkpt lat="45.47483" lon="5.77052">
        <ele>766.629828742</ele>
        <time>2015-12-28T09:15:12Z</time>
      </trkpt>
      <trkpt lat="45.47477" lon="5.77051">
        <ele>766.629828742</ele>
        <time>2015-12-28T09:15:17Z</time>
      </trkpt>
      <trkpt lat="45.4746" lon="5.77054">
        <ele>768.825256685</ele>
        <time>2015-12-28T09:15:27Z</time>
      </trkpt>
      <trkpt lat="45.47458" lon="5.77051">
        <ele>768.825256685</ele>
        <time>2015-12-28T09:15:32Z</time>
      </trkpt>
      <trkpt lat="45.47444" lon="5.77047">
        <ele>771.837773461</ele>
        <time>2015-12-28T09:15:41Z</time>
      </trkpt>
      <trkpt lat="45.47442" lon="5.77045">
        <ele>771.837773461</ele>
        <time>2015-12-28T09:15:47Z</time>
      </trkpt>
      <trkpt lat="45.47429" lon="5.77043">
        <ele>775.452881675</ele>
        <time>2015-12-28T09:15:57Z</time>
      </trkpt>
      <trkpt lat="45.4742" lon="5.77045">
        <ele>778.124617289</ele>
        <time>2015-12-28T09:16:02Z</time>
      </trkpt>
      <trkpt lat="45.47408" lon="5.77041">
        <ele>780.828329456</ele>
        <time>2015-12-28T09:16:12Z</time>
      </trkpt>
      <trkpt lat="45.47401" lon="5.77038">
        <ele>780.828329456</ele>
        <time>2015-12-28T09:16:17Z</time>
      </trkpt>
      <trkpt lat="45.47385" lon="5.77052">
        <ele>782.967898534</ele>
        <time>2015-12-28T09:16:27Z</time>
      </trkpt>
      <trkpt lat="45.47382" lon="5.77051">
        <ele>782.967898534</ele>
        <time>2015-12-28T09:16:32Z</time>
      </trkpt>
      <trkpt lat="45.47373" lon="5.77051">
        <ele>785.484680326</ele>
        <time>2015-12-28T09:16:36Z</time>
      </trkpt>
      <trkpt lat="45.47368" lon="5.77056">
        <ele>785.484680326</ele>
        <time>2015-12-28T09:16:42Z</time>
      </trkpt>
      <trkpt lat="45.47364" lon="5.77059">
        <ele>788.202143009</ele>
        <time>2015-12-28T09:16:47Z</time>
      </trkpt>
      <trkpt lat="45.47342" lon="5.77065">
        <ele>791.253585438</ele>
        <time>2015-12-28T09:17:01Z</time>
      </trkpt>
      <trkpt lat="45.47331" lon="5.77074">
        <ele>793.285498549</ele>
        <time>2015-12-28T09:17:07Z</time>
      </trkpt>
      <trkpt lat="45.47325" lon="5.77086">
        <ele>794.825331705</ele>
        <time>2015-12-28T09:17:11Z</time>
      </trkpt>
      <trkpt lat="45.47323" lon="5.77088">
        <ele>794.825331705</ele>
        <time>2015-12-28T09:17:17Z</time>
      </trkpt>
      <trkpt lat="45.47314" lon="5.77071">
        <ele>796.798073932</ele>
        <time>2015-12-28T09:17:32Z</time>
      </trkpt>
      <trkpt lat="45.47309" lon="5.77061">
        <ele>796.798073932</ele>
        <time>2015-12-28T09:17:37Z</time>
      </trkpt>
      <trkpt lat="45.47296" lon="5.77045">
        <ele>799.172317323</ele>
        <time>2015-12-28T09:17:48Z</time>
      </trkpt>
      <trkpt lat="45.4729" lon="5.7704">
        <ele>799.172317323</ele>
        <time>2015-12-28T09:17:52Z</time>
      </trkpt>
      <trkpt lat="45.47282" lon="5.77049">
        <ele>800.310295883</ele>
        <time>2015-12-28T09:18:02Z</time>
      </trkpt>
      <trkpt lat="45.47281" lon="5.77059">
        <ele>800.310295883</ele>
        <time>2015-12-28T09:18:07Z</time>
      </trkpt>
      <trkpt lat="45.47273" lon="5.7707">
        <ele>801.920191309</ele>
        <time>2015-12-28T09:18:17Z</time>
      </trkpt>
      <trkpt lat="45.47271" lon="5.77077">
        <ele>801.920191309</ele>
        <time>2015-12-28T09:18:22Z</time>
      </trkpt>
      <trkpt lat="45.47263" lon="5.77097">
        <ele>803.823035574</ele>
        <time>2015-12-28T09:18:37Z</time>
      </trkpt>
      <trkpt lat="45.47262" lon="5.771">
        <ele>803.823035574</ele>
        <time>2015-12-28T09:18:42Z</time>
      </trkpt>
      <trkpt lat="45.47259" lon="5.77105">
        <ele>803.823035574</ele>
        <time>2015-12-28T09:18:47Z</time>
      </trkpt>
      <trkpt lat="45.47255" lon="5.77105">
        <ele>804.835535165</ele>
        <time>2015-12-28T09:18:52Z</time>
      </trkpt>
      <trkpt lat="45.47258" lon="5.77106">
        <ele>804.835535165</ele>
        <time>2015-12-28T09:19:07Z</time>
      </trkpt>
      <trkpt lat="45.47258" lon="5.77106">
        <ele>804.835535165</ele>
        <time>2015-12-28T09:19:12Z</time>
      </trkpt>
      <trkpt lat="45.47254" lon="5.77113">
        <ele>804.835535165</ele>
        <time>2015-12-28T09:19:22Z</time>
      </trkpt>
      <trkpt lat="45.47254" lon="5.77116">
        <ele>805.613017629</ele>
        <time>2015-12-28T09:19:27Z</time>
      </trkpt>
      <trkpt lat="45.47255" lon="5.77117">
        <ele>805.613017629</ele>
        <time>2015-12-28T09:19:37Z</time>
      </trkpt>
      <trkpt lat="45.47256" lon="5.77121">
        <ele>805.613017629</ele>
        <time>2015-12-28T09:19:42Z</time>
      </trkpt>
      <trkpt lat="45.47249" lon="5.77125">
        <ele>807.04949587</ele>
        <time>2015-12-28T09:19:52Z</time>
      </trkpt>
      <trkpt lat="45.47248" lon="5.77128">
        <ele>807.04949587</ele>
        <time>2015-12-28T09:19:57Z</time>
      </trkpt>
      <trkpt lat="45.4724" lon="5.7714">
        <ele>808.518651312</ele>
        <time>2015-12-28T09:20:06Z</time>
      </trkpt>
      <trkpt lat="45.47236" lon="5.77142">
        <ele>808.518651312</ele>
        <time>2015-12-28T09:20:11Z</time>
      </trkpt>
      <trkpt lat="45.47225" lon="5.77148">
        <ele>810.021646594</ele>
        <time>2015-12-28T09:20:22Z</time>
      </trkpt>
      <trkpt lat="45.47221" lon="5.77152">
        <ele>810.021646594</ele>
        <time>2015-12-28T09:20:27Z</time>
      </trkpt>
      <trkpt lat="45.47216" lon="5.77158">
        <ele>811.414741616</ele>
        <time>2015-12-28T09:20:37Z</time>
      </trkpt>
      <trkpt lat="45.47217" lon="5.77166">
        <ele>811.414741616</ele>
        <time>2015-12-28T09:20:42Z</time>
      </trkpt>
      <trkpt lat="45.47215" lon="5.77177">
        <ele>813.143384832</ele>
        <time>2015-12-28T09:20:52Z</time>
      </trkpt>
      <trkpt lat="45.47214" lon="5.77183">
        <ele>813.143384832</ele>
        <time>2015-12-28T09:20:57Z</time>
      </trkpt>
      <trkpt lat="45.47213" lon="5.77193">
        <ele>814.462772949</ele>
        <time>2015-12-28T09:21:01Z</time>
      </trkpt>
      <trkpt lat="45.47212" lon="5.77204">
        <ele>814.462772949</ele>
        <time>2015-12-28T09:21:07Z</time>
      </trkpt>
      <trkpt lat="45.47213" lon="5.7721">
        <ele>815.551474962</ele>
        <time>2015-12-28T09:21:12Z</time>
      </trkpt>
      <trkpt lat="45.47218" lon="5.77234">
        <ele>818.306636665</ele>
        <time>2015-12-28T09:21:27Z</time>
      </trkpt>
      <trkpt lat="45.47221" lon="5.77245">
        <ele>818.306636665</ele>
        <time>2015-12-28T09:21:32Z</time>
      </trkpt>
      <trkpt lat="45.47226" lon="5.7726">
        <ele>822.31515116</ele>
        <time>2015-12-28T09:21:42Z</time>
      </trkpt>
      <trkpt lat="45.4723" lon="5.77268">
        <ele>822.31515116</ele>
        <time>2015-12-28T09:21:47Z</time>
      </trkpt>
      <trkpt lat="45.47236" lon="5.77287">
        <ele>825.893474074</ele>
        <time>2015-12-28T09:21:57Z</time>
      </trkpt>
      <trkpt lat="45.47242" lon="5.77296">
        <ele>825.893474074</ele>
        <time>2015-12-28T09:22:01Z</time>
      </trkpt>
      <trkpt lat="45.47254" lon="5.77306">
        <ele>829.935601954</ele>
        <time>2015-12-28T09:22:13Z</time>
      </trkpt>
      <trkpt lat="45.47259" lon="5.77309">
        <ele>829.935601954</ele>
        <time>2015-12-28T09:22:17Z</time>
      </trkpt>
      <trkpt lat="45.47269" lon="5.77314">
        <ele>834.114436011</ele>
        <time>2015-12-28T09:22:27Z</time>
      </trkpt>
      <trkpt lat="45.4727" lon="5.77317">
        <ele>834.114436011</ele>
        <time>2015-12-28T09:22:32Z</time>
      </trkpt>
      <trkpt lat="45.47259" lon="5.77323">
        <ele>838.847466261</ele>
        <time>2015-12-28T09:22:42Z</time>
      </trkpt>
      <trkpt lat="45.47253" lon="5.77325">
        <ele>838.847466261</ele>
        <time>2015-12-28T09:22:47Z</time>
      </trkpt>
      <trkpt lat="45.47247" lon="5.77331">
        <ele>844.375655373</ele>
        <time>2015-12-28T09:22:57Z</time>
      </trkpt>
      <trkpt lat="45.47244" lon="5.7733">
        <ele>844.375655373</ele>
        <time>2015-12-28T09:23:02Z</time>
      </trkpt>
      <trkpt lat="45.47233" lon="5.77323">
        <ele>849.622434452</ele>
        <time>2015-12-28T09:23:06Z</time>
      </trkpt>
      <trkpt lat="45.47224" lon="5.77315">
        <ele>854.888696529</ele>
        <time>2015-12-28T09:23:12Z</time>
      </trkpt>
      <trkpt lat="45.47214" lon="5.77311">
        <ele>859.155491398</ele>
        <time>2015-12-28T09:23:17Z</time>
      </trkpt>
      <trkpt lat="45.47201" lon="5.77308">
        <ele>862.63495679</ele>
        <time>2015-12-28T09:23:22Z</time>
      </trkpt>
      <trkpt lat="45.47194" lon="5.77325">
        <ele>865.670112586</ele>
        <time>2015-12-28T09:23:32Z</time>
      </trkpt>
      <trkpt lat="45.47189" lon="5.77338">
        <ele>868.435924571</ele>
        <time>2015-12-28T09:23:37Z</time>
      </trkpt>
      <trkpt lat="45.47177" lon="5.77355">
        <ele>870.51848016</ele>
        <time>2015-12-28T09:23:47Z</time>
      </trkpt>
      <trkpt lat="45.47176" lon="5.77365">
        <ele>870.51848016</ele>
        <time>2015-12-28T09:23:52Z</time>
      </trkpt>
      <trkpt lat="45.47175" lon="5.77382">
        <ele>872.11311856</ele>
        <time>2015-12-28T09:24:02Z</time>
      </trkpt>
      <trkpt lat="45.47174" lon="5.77384">
        <ele>872.11311856</ele>
        <time>2015-12-28T09:24:07Z</time>
      </trkpt>
      <trkpt lat="45.47172" lon="5.77394">
        <ele>872.11311856</ele>
        <time>2015-12-28T09:24:17Z</time>
      </trkpt>
      <trkpt lat="45.47171" lon="5.77407">
        <ele>873.979225069</ele>
        <time>2015-12-28T09:24:22Z</time>
      </trkpt>
      <trkpt lat="45.47171" lon="5.77436">
        <ele>875.233134798</ele>
        <time>2015-12-28T09:24:32Z</time>
      </trkpt>
      <trkpt lat="45.47168" lon="5.7745">
        <ele>876.067508234</ele>
        <time>2015-12-28T09:24:37Z</time>
      </trkpt>
      <trkpt lat="45.47165" lon="5.77491">
        <ele>877.094805228</ele>
        <time>2015-12-28T09:24:52Z</time>
      </trkpt>
      <trkpt lat="45.47165" lon="5.77504">
        <ele>878.01648203</ele>
        <time>2015-12-28T09:24:57Z</time>
      </trkpt>
      <trkpt lat="45.4716" lon="5.77526">
        <ele>878.700472694</ele>
        <time>2015-12-28T09:25:08Z</time>
      </trkpt>
      <trkpt lat="45.47156" lon="5.7754">
        <ele>879.74628415</ele>
        <time>2015-12-28T09:25:11Z</time>
      </trkpt>
      <trkpt lat="45.47154" lon="5.77569">
        <ele>880.842826553</ele>
        <time>2015-12-28T09:25:22Z</time>
      </trkpt>
      <trkpt lat="45.47152" lon="5.77582">
        <ele>880.842826553</ele>
        <time>2015-12-28T09:25:27Z</time>
      </trkpt>
      <trkpt lat="45.47147" lon="5.77606">
        <ele>882.71135585</ele>
        <time>2015-12-28T09:25:37Z</time>
      </trkpt>
      <trkpt lat="45.4714" lon="5.77613">
        <ele>882.71135585</ele>
        <time>2015-12-28T09:25:42Z</time>
      </trkpt>
      <trkpt lat="45.47127" lon="5.77632">
        <ele>884.719731164</ele>
        <time>2015-12-28T09:25:52Z</time>
      </trkpt>
      <trkpt lat="45.47126" lon="5.77644">
        <ele>884.719731164</ele>
        <time>2015-12-28T09:25:57Z</time>
      </trkpt>
      <trkpt lat="45.47135" lon="5.77673">
        <ele>886.281911754</ele>
        <time>2015-12-28T09:26:07Z</time>
      </trkpt>
      <trkpt lat="45.47138" lon="5.77684">
        <ele>886.281911754</ele>
        <time>2015-12-28T09:26:11Z</time>
      </trkpt>
      <trkpt lat="45.47142" lon="5.77706">
        <ele>887.433094816</ele>
        <time>2015-12-28T09:26:22Z</time>
      </trkpt>
      <trkpt lat="45.47143" lon="5.7772">
        <ele>889.0722487</ele>
        <time>2015-12-28T09:26:27Z</time>
      </trkpt>
      <trkpt lat="45.47145" lon="5.77756">
        <ele>890.444446891</ele>
        <time>2015-12-28T09:26:38Z</time>
      </trkpt>
      <trkpt lat="45.47145" lon="5.7777">
        <ele>891.572047991</ele>
        <time>2015-12-28T09:26:42Z</time>
      </trkpt>
      <trkpt lat="45.47148" lon="5.77804">
        <ele>893.053135734</ele>
        <time>2015-12-28T09:26:53Z</time>
      </trkpt>
      <trkpt lat="45.47151" lon="5.77825">
        <ele>892.989594849</ele>
        <time>2015-12-28T09:26:57Z</time>
      </trkpt>
      <trkpt lat="45.47152" lon="5.77855">
        <ele>892.943382945</ele>
        <time>2015-12-28T09:27:06Z</time>
      </trkpt>
      <trkpt lat="45.47155" lon="5.77874">
        <ele>892.631261831</ele>
        <time>2015-12-28T09:27:11Z</time>
      </trkpt>
      <trkpt lat="45.47163" lon="5.77913">
        <ele>892.512298295</ele>
        <time>2015-12-28T09:27:22Z</time>
      </trkpt>
      <trkpt lat="45.47168" lon="5.77929">
        <ele>892.146178515</ele>
        <time>2015-12-28T09:27:27Z</time>
      </trkpt>
      <trkpt lat="45.47182" lon="5.77952">
        <ele>891.70216813</ele>
        <time>2015-12-28T09:27:37Z</time>
      </trkpt>
      <trkpt lat="45.47195" lon="5.77966">
        <ele>891.048869649</ele>
        <time>2015-12-28T09:27:42Z</time>
      </trkpt>
      <trkpt lat="45.47204" lon="5.77988">
        <ele>890.641546974</ele>
        <time>2015-12-28T09:27:52Z</time>
      </trkpt>
      <trkpt lat="45.47204" lon="5.78001">
        <ele>890.641546974</ele>
        <time>2015-12-28T09:27:57Z</time>
      </trkpt>
      <trkpt lat="45.47206" lon="5.7803">
        <ele>891.189388117</ele>
        <time>2015-12-28T09:28:07Z</time>
      </trkpt>
      <trkpt lat="45.47204" lon="5.78037">
        <ele>891.189388117</ele>
        <time>2015-12-28T09:28:11Z</time>
      </trkpt>
      <trkpt lat="45.47204" lon="5.78048">
        <ele>891.472895374</ele>
        <time>2015-12-28T09:28:16Z</time>
      </trkpt>
      <trkpt lat="45.47198" lon="5.78064">
        <ele>891.515864446</ele>
        <time>2015-12-28T09:28:22Z</time>
      </trkpt>
      <trkpt lat="45.47192" lon="5.78077">
        <ele>891.484969814</ele>
        <time>2015-12-28T09:28:26Z</time>
      </trkpt>
      <trkpt lat="45.47191" lon="5.78107">
        <ele>891.102306599</ele>
        <time>2015-12-28T09:28:37Z</time>
      </trkpt>
      <trkpt lat="45.47189" lon="5.78126">
        <ele>890.687689807</ele>
        <time>2015-12-28T09:28:42Z</time>
      </trkpt>
      <trkpt lat="45.4719" lon="5.78154">
        <ele>889.240287135</ele>
        <time>2015-12-28T09:28:52Z</time>
      </trkpt>
      <trkpt lat="45.47188" lon="5.78159">
        <ele>889.240287135</ele>
        <time>2015-12-28T09:28:57Z</time>
      </trkpt>
      <trkpt lat="45.47192" lon="5.78161">
        <ele>889.240287135</ele>
        <time>2015-12-28T09:29:07Z</time>
      </trkpt>
      <trkpt lat="45.47196" lon="5.7817">
        <ele>886.988459953</ele>
        <time>2015-12-28T09:29:11Z</time>
      </trkpt>
      <trkpt lat="45.47204" lon="5.78178">
        <ele>885.010529566</ele>
        <time>2015-12-28T09:29:16Z</time>
      </trkpt>
      <trkpt lat="45.47218" lon="5.78188">
        <ele>884.448720768</ele>
        <time>2015-12-28T09:29:26Z</time>
      </trkpt>
      <trkpt lat="45.47232" lon="5.78202">
        <ele>883.907233328</ele>
        <time>2015-12-28T09:29:32Z</time>
      </trkpt>
      <trkpt lat="45.47244" lon="5.78213">
        <ele>883.966017261</ele>
        <time>2015-12-28T09:29:42Z</time>
      </trkpt>
      <trkpt lat="45.47251" lon="5.78223">
        <ele>883.575280887</ele>
        <time>2015-12-28T09:29:47Z</time>
      </trkpt>
      <trkpt lat="45.47263" lon="5.7824">
        <ele>883.636867377</ele>
        <time>2015-12-28T09:29:57Z</time>
      </trkpt>
      <trkpt lat="45.47269" lon="5.78251">
        <ele>883.831996406</ele>
        <time>2015-12-28T09:30:02Z</time>
      </trkpt>
      <trkpt lat="45.47281" lon="5.78274">
        <ele>884.873523817</ele>
        <time>2015-12-28T09:30:11Z</time>
      </trkpt>
      <trkpt lat="45.47293" lon="5.78291">
        <ele>886.410592284</ele>
        <time>2015-12-28T09:30:17Z</time>
      </trkpt>
      <trkpt lat="45.47302" lon="5.78316">
        <ele>888.260669692</ele>
        <time>2015-12-28T09:30:27Z</time>
      </trkpt>
      <trkpt lat="45.47303" lon="5.78322">
        <ele>888.260669692</ele>
        <time>2015-12-28T09:30:32Z</time>
      </trkpt>
      <trkpt lat="45.47301" lon="5.78323">
        <ele>888.260669692</ele>
        <time>2015-12-28T09:30:42Z</time>
      </trkpt>
      <trkpt lat="45.47296" lon="5.78329">
        <ele>888.668349678</ele>
        <time>2015-12-28T09:30:47Z</time>
      </trkpt>
      <trkpt lat="45.47292" lon="5.78332">
        <ele>888.668349678</ele>
        <time>2015-12-28T09:30:52Z</time>
      </trkpt>
      <trkpt lat="45.47279" lon="5.78347">
        <ele>889.181575942</ele>
        <time>2015-12-28T09:31:02Z</time>
      </trkpt>
      <trkpt lat="45.4727" lon="5.78383">
        <ele>889.648911025</ele>
        <time>2015-12-28T09:31:17Z</time>
      </trkpt>
      <trkpt lat="45.47271" lon="5.784">
        <ele>889.785937373</ele>
        <time>2015-12-28T09:31:22Z</time>
      </trkpt>
      <trkpt lat="45.47275" lon="5.78426">
        <ele>889.618172932</ele>
        <time>2015-12-28T09:31:32Z</time>
      </trkpt>
      <trkpt lat="45.4728" lon="5.78438">
        <ele>889.602353323</ele>
        <time>2015-12-28T09:31:37Z</time>
      </trkpt>
      <trkpt lat="45.47288" lon="5.78458">
        <ele>888.864100766</ele>
        <time>2015-12-28T09:31:47Z</time>
      </trkpt>
      <trkpt lat="45.47295" lon="5.78469">
        <ele>887.45987966</ele>
        <time>2015-12-28T09:31:51Z</time>
      </trkpt>
      <trkpt lat="45.47304" lon="5.7848">
        <ele>886.596688966</ele>
        <time>2015-12-28T09:32:01Z</time>
      </trkpt>
      <trkpt lat="45.47312" lon="5.78498">
        <ele>885.661856698</ele>
        <time>2015-12-28T09:32:07Z</time>
      </trkpt>
      <trkpt lat="45.47305" lon="5.78523">
        <ele>886.105417215</ele>
        <time>2015-12-28T09:32:22Z</time>
      </trkpt>
      <trkpt lat="45.47294" lon="5.78529">
        <ele>887.249300857</ele>
        <time>2015-12-28T09:32:32Z</time>
      </trkpt>
      <trkpt lat="45.47288" lon="5.78535">
        <ele>887.249300857</ele>
        <time>2015-12-28T09:32:37Z</time>
      </trkpt>
      <trkpt lat="45.47284" lon="5.78545">
        <ele>888.751415167</ele>
        <time>2015-12-28T09:32:42Z</time>
      </trkpt>
      <trkpt lat="45.47273" lon="5.78557">
        <ele>890.726050404</ele>
        <time>2015-12-28T09:32:52Z</time>
      </trkpt>
      <trkpt lat="45.47269" lon="5.78566">
        <ele>890.726050404</ele>
        <time>2015-12-28T09:32:57Z</time>
      </trkpt>
      <trkpt lat="45.47257" lon="5.78576">
        <ele>892.701246994</ele>
        <time>2015-12-28T09:33:07Z</time>
      </trkpt>
      <trkpt lat="45.47252" lon="5.7858">
        <ele>892.701246994</ele>
        <time>2015-12-28T09:33:12Z</time>
      </trkpt>
      <trkpt lat="45.4724" lon="5.78598">
        <ele>894.816121013</ele>
        <time>2015-12-28T09:33:22Z</time>
      </trkpt>
      <trkpt lat="45.47236" lon="5.78604">
        <ele>894.816121013</ele>
        <time>2015-12-28T09:33:27Z</time>
      </trkpt>
      <trkpt lat="45.47228" lon="5.78623">
        <ele>898.063829455</ele>
        <time>2015-12-28T09:33:36Z</time>
      </trkpt>
      <trkpt lat="45.47218" lon="5.78632">
        <ele>901.487899768</ele>
        <time>2015-12-28T09:33:43Z</time>
      </trkpt>
      <trkpt lat="45.47208" lon="5.78653">
        <ele>905.210442128</ele>
        <time>2015-12-28T09:33:52Z</time>
      </trkpt>
      <trkpt lat="45.47203" lon="5.78662">
        <ele>905.210442128</ele>
        <time>2015-12-28T09:33:56Z</time>
      </trkpt>
      <trkpt lat="45.47186" lon="5.78682">
        <ele>908.911457892</ele>
        <time>2015-12-28T09:34:08Z</time>
      </trkpt>
      <trkpt lat="45.47178" lon="5.78693">
        <ele>912.006355257</ele>
        <time>2015-12-28T09:34:12Z</time>
      </trkpt>
      <trkpt lat="45.47166" lon="5.78704">
        <ele>915.108180306</ele>
        <time>2015-12-28T09:34:22Z</time>
      </trkpt>
      <trkpt lat="45.47159" lon="5.78711">
        <ele>915.108180306</ele>
        <time>2015-12-28T09:34:27Z</time>
      </trkpt>
      <trkpt lat="45.47148" lon="5.78723">
        <ele>917.77623754</ele>
        <time>2015-12-28T09:34:37Z</time>
      </trkpt>
      <trkpt lat="45.47143" lon="5.78732">
        <ele>917.77623754</ele>
        <time>2015-12-28T09:34:42Z</time>
      </trkpt>
      <trkpt lat="45.47128" lon="5.78745">
        <ele>921.188784213</ele>
        <time>2015-12-28T09:34:53Z</time>
      </trkpt>
      <trkpt lat="45.4712" lon="5.78754">
        <ele>923.985652096</ele>
        <time>2015-12-28T09:34:57Z</time>
      </trkpt>
      <trkpt lat="45.47107" lon="5.78763">
        <ele>926.34959193</ele>
        <time>2015-12-28T09:35:07Z</time>
      </trkpt>
      <trkpt lat="45.471" lon="5.78767">
        <ele>926.34959193</ele>
        <time>2015-12-28T09:35:12Z</time>
      </trkpt>
      <trkpt lat="45.47079" lon="5.78777">
        <ele>929.171858516</ele>
        <time>2015-12-28T09:35:27Z</time>
      </trkpt>
      <trkpt lat="45.47072" lon="5.78777">
        <ele>929.171858516</ele>
        <time>2015-12-28T09:35:32Z</time>
      </trkpt>
      <trkpt lat="45.47066" lon="5.78775">
        <ele>932.700662013</ele>
        <time>2015-12-28T09:35:42Z</time>
      </trkpt>
      <trkpt lat="45.47053" lon="5.78773">
        <ele>935.723048732</ele>
        <time>2015-12-28T09:35:47Z</time>
      </trkpt>
      <trkpt lat="45.47027" lon="5.78777">
        <ele>938.846111336</ele>
        <time>2015-12-28T09:35:58Z</time>
      </trkpt>
      <trkpt lat="45.47018" lon="5.78783">
        <ele>940.902905394</ele>
        <time>2015-12-28T09:36:02Z</time>
      </trkpt>
      <trkpt lat="45.47004" lon="5.78784">
        <ele>943.265286964</ele>
        <time>2015-12-28T09:36:12Z</time>
      </trkpt>
      <trkpt lat="45.47003" lon="5.78789">
        <ele>943.265286964</ele>
        <time>2015-12-28T09:36:18Z</time>
      </trkpt>
      <trkpt lat="45.46978" lon="5.78793">
        <ele>945.76254934</ele>
        <time>2015-12-28T09:36:27Z</time>
      </trkpt>
      <trkpt lat="45.46967" lon="5.788">
        <ele>948.236334935</ele>
        <time>2015-12-28T09:36:32Z</time>
      </trkpt>
      <trkpt lat="45.46949" lon="5.78818">
        <ele>950.25194665</ele>
        <time>2015-12-28T09:36:42Z</time>
      </trkpt>
      <trkpt lat="45.46937" lon="5.78826">
        <ele>951.696308417</ele>
        <time>2015-12-28T09:36:47Z</time>
      </trkpt>
      <trkpt lat="45.46919" lon="5.78842">
        <ele>952.898760622</ele>
        <time>2015-12-28T09:36:57Z</time>
      </trkpt>
      <trkpt lat="45.46908" lon="5.78857">
        <ele>953.444736134</ele>
        <time>2015-12-28T09:37:02Z</time>
      </trkpt>
      <trkpt lat="45.46885" lon="5.7889">
        <ele>952.231554966</ele>
        <time>2015-12-28T09:37:12Z</time>
      </trkpt>
      <trkpt lat="45.46876" lon="5.78893">
        <ele>951.701272464</ele>
        <time>2015-12-28T09:37:17Z</time>
      </trkpt>
      <trkpt lat="45.4686" lon="5.78909">
        <ele>951.376629362</ele>
        <time>2015-12-28T09:37:27Z</time>
      </trkpt>
      <trkpt lat="45.46854" lon="5.78916">
        <ele>951.376629362</ele>
        <time>2015-12-28T09:37:31Z</time>
      </trkpt>
      <trkpt lat="45.46833" lon="5.78946">
        <ele>949.662040351</ele>
        <time>2015-12-28T09:37:43Z</time>
      </trkpt>
      <trkpt lat="45.46832" lon="5.78949">
        <ele>949.662040351</ele>
        <time>2015-12-28T09:37:47Z</time>
      </trkpt>
      <trkpt lat="45.46827" lon="5.78965">
        <ele>948.829977709</ele>
        <time>2015-12-28T09:37:57Z</time>
      </trkpt>
      <trkpt lat="45.46824" lon="5.78972">
        <ele>948.829977709</ele>
        <time>2015-12-28T09:38:02Z</time>
      </trkpt>
      <trkpt lat="45.46821" lon="5.78979">
        <ele>947.524866388</ele>
        <time>2015-12-28T09:38:07Z</time>
      </trkpt>
      <trkpt lat="45.46814" lon="5.78984">
        <ele>947.524866388</ele>
        <time>2015-12-28T09:38:17Z</time>
      </trkpt>
      <trkpt lat="45.46811" lon="5.78988">
        <ele>947.518383771</ele>
        <time>2015-12-28T09:38:22Z</time>
      </trkpt>
      <trkpt lat="45.468" lon="5.79001">
        <ele>947.133850231</ele>
        <time>2015-12-28T09:38:32Z</time>
      </trkpt>
      <trkpt lat="45.46796" lon="5.7901">
        <ele>947.133850231</ele>
        <time>2015-12-28T09:38:37Z</time>
      </trkpt>
      <trkpt lat="45.46791" lon="5.79023">
        <ele>947.268680274</ele>
        <time>2015-12-28T09:38:47Z</time>
      </trkpt>
      <trkpt lat="45.4679" lon="5.79028">
        <ele>947.268680274</ele>
        <time>2015-12-28T09:38:52Z</time>
      </trkpt>
      <trkpt lat="45.4679" lon="5.7904">
        <ele>947.599981518</ele>
        <time>2015-12-28T09:39:02Z</time>
      </trkpt>
      <trkpt lat="45.46789" lon="5.7904">
        <ele>947.599981518</ele>
        <time>2015-12-28T09:39:07Z</time>
      </trkpt>
      <trkpt lat="45.46781" lon="5.79047">
        <ele>949.124988056</ele>
        <time>2015-12-28T09:39:17Z</time>
      </trkpt>
      <trkpt lat="45.46778" lon="5.79058">
        <ele>949.124988056</ele>
        <time>2015-12-28T09:39:22Z</time>
      </trkpt>
      <trkpt lat="45.46774" lon="5.79064">
        <ele>951.179060304</ele>
        <time>2015-12-28T09:39:32Z</time>
      </trkpt>
      <trkpt lat="45.46772" lon="5.79069">
        <ele>951.179060304</ele>
        <time>2015-12-28T09:39:37Z</time>
      </trkpt>
      <trkpt lat="45.46767" lon="5.79084">
        <ele>954.009524442</ele>
        <time>2015-12-28T09:39:47Z</time>
      </trkpt>
      <trkpt lat="45.46764" lon="5.79089">
        <ele>954.009524442</ele>
        <time>2015-12-28T09:39:52Z</time>
      </trkpt>
      <trkpt lat="45.46757" lon="5.79103">
        <ele>957.266882751</ele>
        <time>2015-12-28T09:40:07Z</time>
      </trkpt>
      <trkpt lat="45.46751" lon="5.79111">
        <ele>957.266882751</ele>
        <time>2015-12-28T09:40:12Z</time>
      </trkpt>
      <trkpt lat="45.46744" lon="5.79117">
        <ele>960.626094843</ele>
        <time>2015-12-28T09:40:22Z</time>
      </trkpt>
      <trkpt lat="45.46742" lon="5.79122">
        <ele>960.626094843</ele>
        <time>2015-12-28T09:40:26Z</time>
      </trkpt>
      <trkpt lat="45.46725" lon="5.79129">
        <ele>963.785708344</ele>
        <time>2015-12-28T09:40:37Z</time>
      </trkpt>
      <trkpt lat="45.4672" lon="5.79134">
        <ele>963.785708344</ele>
        <time>2015-12-28T09:40:41Z</time>
      </trkpt>
      <trkpt lat="45.46715" lon="5.79149">
        <ele>965.746429542</ele>
        <time>2015-12-28T09:40:52Z</time>
      </trkpt>
      <trkpt lat="45.46712" lon="5.79158">
        <ele>965.746429542</ele>
        <time>2015-12-28T09:40:57Z</time>
      </trkpt>
      <trkpt lat="45.46716" lon="5.79169">
        <ele>968.61209589</ele>
        <time>2015-12-28T09:41:07Z</time>
      </trkpt>
      <trkpt lat="45.46716" lon="5.79172">
        <ele>968.61209589</ele>
        <time>2015-12-28T09:41:12Z</time>
      </trkpt>
      <trkpt lat="45.46718" lon="5.7917">
        <ele>968.61209589</ele>
        <time>2015-12-28T09:41:22Z</time>
      </trkpt>
      <trkpt lat="45.46717" lon="5.79171">
        <ele>968.61209589</ele>
        <time>2015-12-28T09:41:27Z</time>
      </trkpt>
      <trkpt lat="45.46723" lon="5.79175">
        <ele>972.456049217</ele>
        <time>2015-12-28T09:41:37Z</time>
      </trkpt>
      <trkpt lat="45.46721" lon="5.79178">
        <ele>972.456049217</ele>
        <time>2015-12-28T09:41:42Z</time>
      </trkpt>
      <trkpt lat="45.46722" lon="5.79185">
        <ele>972.456049217</ele>
        <time>2015-12-28T09:41:47Z</time>
      </trkpt>
      <trkpt lat="45.46725" lon="5.792">
        <ele>977.343549125</ele>
        <time>2015-12-28T09:41:57Z</time>
      </trkpt>
      <trkpt lat="45.46726" lon="5.79212">
        <ele>977.343549125</ele>
        <time>2015-12-28T09:42:02Z</time>
      </trkpt>
      <trkpt lat="45.46727" lon="5.79226">
        <ele>981.746974984</ele>
        <time>2015-12-28T09:42:12Z</time>
      </trkpt>
      <trkpt lat="45.4673" lon="5.79222">
        <ele>981.746974984</ele>
        <time>2015-12-28T09:42:17Z</time>
      </trkpt>
      <trkpt lat="45.46735" lon="5.79223">
        <ele>981.746974984</ele>
        <time>2015-12-28T09:42:27Z</time>
      </trkpt>
      <trkpt lat="45.46738" lon="5.79224">
        <ele>987.711038874</ele>
        <time>2015-12-28T09:42:32Z</time>
      </trkpt>
      <trkpt lat="45.46749" lon="5.79203">
        <ele>993.523199773</ele>
        <time>2015-12-28T09:42:52Z</time>
      </trkpt>
      <trkpt lat="45.4675" lon="5.79202">
        <ele>993.523199773</ele>
        <time>2015-12-28T09:42:57Z</time>
      </trkpt>
      <trkpt lat="45.46755" lon="5.79201">
        <ele>993.523199773</ele>
        <time>2015-12-28T09:43:07Z</time>
      </trkpt>
      <trkpt lat="45.4676" lon="5.79199">
        <ele>998.461946078</ele>
        <time>2015-12-28T09:43:12Z</time>
      </trkpt>
      <trkpt lat="45.46766" lon="5.79195">
        <ele>998.461946078</ele>
        <time>2015-12-28T09:43:22Z</time>
      </trkpt>
      <trkpt lat="45.46771" lon="5.79197">
        <ele>1002.437817119</ele>
        <time>2015-12-28T09:43:26Z</time>
      </trkpt>
      <trkpt lat="45.46779" lon="5.79192">
        <ele>1002.437817119</ele>
        <time>2015-12-28T09:43:37Z</time>
      </trkpt>
      <trkpt lat="45.46781" lon="5.79192">
        <ele>1006.956020758</ele>
        <time>2015-12-28T09:43:41Z</time>
      </trkpt>
      <trkpt lat="45.46778" lon="5.7918">
        <ele>1006.956020758</ele>
        <time>2015-12-28T09:43:52Z</time>
      </trkpt>
      <trkpt lat="45.46786" lon="5.79181">
        <ele>1011.536410633</ele>
        <time>2015-12-28T09:43:57Z</time>
      </trkpt>
      <trkpt lat="45.46797" lon="5.79182">
        <ele>1015.590019968</ele>
        <time>2015-12-28T09:44:07Z</time>
      </trkpt>
      <trkpt lat="45.46802" lon="5.79182">
        <ele>1015.590019968</ele>
        <time>2015-12-28T09:44:12Z</time>
      </trkpt>
      <trkpt lat="45.46809" lon="5.79179">
        <ele>1019.869827065</ele>
        <time>2015-12-28T09:44:27Z</time>
      </trkpt>
      <trkpt lat="45.46813" lon="5.79181">
        <ele>1019.869827065</ele>
        <time>2015-12-28T09:44:37Z</time>
      </trkpt>
      <trkpt lat="45.46816" lon="5.79183">
        <ele>1019.869827065</ele>
        <time>2015-12-28T09:44:42Z</time>
      </trkpt>
      <trkpt lat="45.46824" lon="5.79184">
        <ele>1024.352513535</ele>
        <time>2015-12-28T09:44:57Z</time>
      </trkpt>
      <trkpt lat="45.46826" lon="5.79187">
        <ele>1024.352513535</ele>
        <time>2015-12-28T09:45:02Z</time>
      </trkpt>
      <trkpt lat="45.46828" lon="5.79193">
        <ele>1024.352513535</ele>
        <time>2015-12-28T09:45:12Z</time>
      </trkpt>
      <trkpt lat="45.46828" lon="5.79197">
        <ele>1029.0161176</ele>
        <time>2015-12-28T09:45:17Z</time>
      </trkpt>
      <trkpt lat="45.46835" lon="5.79204">
        <ele>1029.0161176</ele>
        <time>2015-12-28T09:45:27Z</time>
      </trkpt>
      <trkpt lat="45.46835" lon="5.79203">
        <ele>1033.407666647</ele>
        <time>2015-12-28T09:45:32Z</time>
      </trkpt>
      <trkpt lat="45.46835" lon="5.79204">
        <ele>1033.407666647</ele>
        <time>2015-12-28T09:45:42Z</time>
      </trkpt>
      <trkpt lat="45.46835" lon="5.79204">
        <ele>1033.407666647</ele>
        <time>2015-12-28T09:45:47Z</time>
      </trkpt>
      <trkpt lat="45.46835" lon="5.79204">
        <ele>1033.407666647</ele>
        <time>2015-12-28T09:45:57Z</time>
      </trkpt>
      <trkpt lat="45.46835" lon="5.792">
        <ele>1033.407666647</ele>
        <time>2015-12-28T09:46:03Z</time>
      </trkpt>
      <trkpt lat="45.46853" lon="5.79179">
        <ele>1037.540780568</ele>
        <time>2015-12-28T09:46:12Z</time>
      </trkpt>
      <trkpt lat="45.46858" lon="5.79176">
        <ele>1037.540780568</ele>
        <time>2015-12-28T09:46:17Z</time>
      </trkpt>
      <trkpt lat="45.46868" lon="5.79169">
        <ele>1042.437806299</ele>
        <time>2015-12-28T09:46:27Z</time>
      </trkpt>
      <trkpt lat="45.46873" lon="5.79167">
        <ele>1042.437806299</ele>
        <time>2015-12-28T09:46:32Z</time>
      </trkpt>
      <trkpt lat="45.46884" lon="5.79158">
        <ele>1046.738293565</ele>
        <time>2015-12-28T09:46:42Z</time>
      </trkpt>
      <trkpt lat="45.46885" lon="5.79151">
        <ele>1046.738293565</ele>
        <time>2015-12-28T09:46:47Z</time>
      </trkpt>
      <trkpt lat="45.46896" lon="5.79152">
        <ele>1051.057076033</ele>
        <time>2015-12-28T09:46:57Z</time>
      </trkpt>
      <trkpt lat="45.469" lon="5.7915">
        <ele>1051.057076033</ele>
        <time>2015-12-28T09:47:02Z</time>
      </trkpt>
      <trkpt lat="45.46899" lon="5.79147">
        <ele>1051.057076033</ele>
        <time>2015-12-28T09:47:12Z</time>
      </trkpt>
      <trkpt lat="45.46899" lon="5.79147">
        <ele>1051.057076033</ele>
        <time>2015-12-28T09:47:16Z</time>
      </trkpt>
      <trkpt lat="45.469" lon="5.79147">
        <ele>1051.057076033</ele>
        <time>2015-12-28T09:47:21Z</time>
      </trkpt>
      <trkpt lat="45.469" lon="5.79147">
        <ele>1051.057076033</ele>
        <time>2015-12-28T09:47:26Z</time>
      </trkpt>
      <trkpt lat="45.469" lon="5.79147">
        <ele>1051.057076033</ele>
        <time>2015-12-28T09:47:31Z</time>
      </trkpt>
      <trkpt lat="45.46902" lon="5.79148">
        <ele>1051.057076033</ele>
        <time>2015-12-28T09:47:36Z</time>
      </trkpt>
      <trkpt lat="45.46911" lon="5.79144">
        <ele>1054.8111073</ele>
        <time>2015-12-28T09:47:42Z</time>
      </trkpt>
      <trkpt lat="45.46917" lon="5.79133">
        <ele>1058.614868919</ele>
        <time>2015-12-28T09:47:51Z</time>
      </trkpt>
      <trkpt lat="45.46922" lon="5.79129">
        <ele>1058.614868919</ele>
        <time>2015-12-28T09:47:56Z</time>
      </trkpt>
      <trkpt lat="45.4693" lon="5.79119">
        <ele>1063.326006652</ele>
        <time>2015-12-28T09:48:07Z</time>
      </trkpt>
      <trkpt lat="45.46934" lon="5.79115">
        <ele>1063.326006652</ele>
        <time>2015-12-28T09:48:12Z</time>
      </trkpt>
      <trkpt lat="45.46944" lon="5.79112">
        <ele>1067.57516773</ele>
        <time>2015-12-28T09:48:22Z</time>
      </trkpt>
      <trkpt lat="45.46948" lon="5.79105">
        <ele>1067.57516773</ele>
        <time>2015-12-28T09:48:27Z</time>
      </trkpt>
      <trkpt lat="45.46952" lon="5.79097">
        <ele>1072.400880096</ele>
        <time>2015-12-28T09:48:37Z</time>
      </trkpt>
      <trkpt lat="45.46958" lon="5.79092">
        <ele>1072.400880096</ele>
        <time>2015-12-28T09:48:42Z</time>
      </trkpt>
      <trkpt lat="45.46961" lon="5.79089">
        <ele>1076.890531177</ele>
        <time>2015-12-28T09:48:52Z</time>
      </trkpt>
      <trkpt lat="45.46964" lon="5.79088">
        <ele>1076.890531177</ele>
        <time>2015-12-28T09:48:56Z</time>
      </trkpt>
      <trkpt lat="45.4697" lon="5.79084">
        <ele>1081.35259078</ele>
        <time>2015-12-28T09:49:06Z</time>
      </trkpt>
      <trkpt lat="45.46973" lon="5.79079">
        <ele>1081.35259078</ele>
        <time>2015-12-28T09:49:13Z</time>
      </trkpt>
      <trkpt lat="45.46979" lon="5.79072">
        <ele>1085.784931584</ele>
        <time>2015-12-28T09:49:22Z</time>
      </trkpt>
      <trkpt lat="45.46981" lon="5.79072">
        <ele>1085.784931584</ele>
        <time>2015-12-28T09:49:27Z</time>
      </trkpt>
      <trkpt lat="45.4699" lon="5.79059">
        <ele>1090.329982294</ele>
        <time>2015-12-28T09:49:37Z</time>
      </trkpt>
      <trkpt lat="45.46992" lon="5.79059">
        <ele>1090.329982294</ele>
        <time>2015-12-28T09:49:42Z</time>
      </trkpt>
      <trkpt lat="45.47007" lon="5.79053">
        <ele>1094.254926351</ele>
        <time>2015-12-28T09:49:57Z</time>
      </trkpt>
      <trkpt lat="45.47011" lon="5.79054">
        <ele>1094.254926351</ele>
        <time>2015-12-28T09:50:01Z</time>
      </trkpt>
      <trkpt lat="45.47014" lon="5.79054">
        <ele>1094.254926351</ele>
        <time>2015-12-28T09:50:12Z</time>
      </trkpt>
      <trkpt lat="45.47031" lon="5.79056">
        <ele>1099.332606103</ele>
        <time>2015-12-28T09:50:27Z</time>
      </trkpt>
      <trkpt lat="45.47034" lon="5.79057">
        <ele>1099.332606103</ele>
        <time>2015-12-28T09:50:32Z</time>
      </trkpt>
      <trkpt lat="45.47041" lon="5.79058">
        <ele>1104.176257014</ele>
        <time>2015-12-28T09:50:43Z</time>
      </trkpt>
      <trkpt lat="45.47042" lon="5.79056">
        <ele>1104.176257014</ele>
        <time>2015-12-28T09:50:47Z</time>
      </trkpt>
      <trkpt lat="45.47046" lon="5.79054">
        <ele>1104.176257014</ele>
        <time>2015-12-28T09:50:57Z</time>
      </trkpt>
      <trkpt lat="45.47051" lon="5.79054">
        <ele>1109.231166666</ele>
        <time>2015-12-28T09:51:02Z</time>
      </trkpt>
      <trkpt lat="45.4705" lon="5.79053">
        <ele>1109.231166666</ele>
        <time>2015-12-28T09:51:12Z</time>
      </trkpt>
      <trkpt lat="45.47052" lon="5.7905">
        <ele>1109.231166666</ele>
        <time>2015-12-28T09:51:17Z</time>
      </trkpt>
      <trkpt lat="45.47055" lon="5.79049">
        <ele>1109.231166666</ele>
        <time>2015-12-28T09:51:27Z</time>
      </trkpt>
      <trkpt lat="45.47058" lon="5.79052">
        <ele>1114.188952235</ele>
        <time>2015-12-28T09:51:32Z</time>
      </trkpt>
      <trkpt lat="45.47064" lon="5.79056">
        <ele>1114.188952235</ele>
        <time>2015-12-28T09:51:42Z</time>
      </trkpt>
      <trkpt lat="45.47065" lon="5.79055">
        <ele>1114.188952235</ele>
        <time>2015-12-28T09:51:46Z</time>
      </trkpt>
      <trkpt lat="45.47069" lon="5.79063">
        <ele>1119.340789603</ele>
        <time>2015-12-28T09:51:57Z</time>
      </trkpt>
      <trkpt lat="45.4707" lon="5.79066">
        <ele>1119.340789603</ele>
        <time>2015-12-28T09:52:01Z</time>
      </trkpt>
      <trkpt lat="45.47069" lon="5.79071">
        <ele>1119.340789603</ele>
        <time>2015-12-28T09:52:12Z</time>
      </trkpt>
      <trkpt lat="45.47069" lon="5.79072">
        <ele>1119.340789603</ele>
        <time>2015-12-28T09:52:17Z</time>
      </trkpt>
      <trkpt lat="45.47075" lon="5.79072">
        <ele>1125.388442641</ele>
        <time>2015-12-28T09:52:27Z</time>
      </trkpt>
      <trkpt lat="45.47077" lon="5.79069">
        <ele>1125.388442641</ele>
        <time>2015-12-28T09:52:32Z</time>
      </trkpt>
      <trkpt lat="45.47083" lon="5.79068">
        <ele>1125.388442641</ele>
        <time>2015-12-28T09:52:42Z</time>
      </trkpt>
      <trkpt lat="45.47088" lon="5.79068">
        <ele>1130.818132513</ele>
        <time>2015-12-28T09:52:49Z</time>
      </trkpt>
      <trkpt lat="45.47089" lon="5.79068">
        <ele>1130.818132513</ele>
        <time>2015-12-28T09:52:51Z</time>
      </trkpt>
      <trkpt lat="45.4709" lon="5.79063">
        <ele>1130.818132513</ele>
        <time>2015-12-28T09:53:02Z</time>
      </trkpt>
      <trkpt lat="45.47092" lon="5.79061">
        <ele>1130.818132513</ele>
        <time>2015-12-28T09:53:07Z</time>
      </trkpt>
      <trkpt lat="45.47093" lon="5.79061">
        <ele>1130.818132513</ele>
        <time>2015-12-28T09:53:17Z</time>
      </trkpt>
      <trkpt lat="45.47093" lon="5.79061">
        <ele>1130.818132513</ele>
        <time>2015-12-28T09:53:21Z</time>
      </trkpt>
      <trkpt lat="45.47096" lon="5.79062">
        <ele>1136.246761772</ele>
        <time>2015-12-28T09:53:32Z</time>
      </trkpt>
      <trkpt lat="45.47099" lon="5.79064">
        <ele>1136.246761772</ele>
        <time>2015-12-28T09:53:37Z</time>
      </trkpt>
      <trkpt lat="45.47099" lon="5.79062">
        <ele>1136.246761772</ele>
        <time>2015-12-28T09:53:47Z</time>
      </trkpt>
      <trkpt lat="45.47099" lon="5.79061">
        <ele>1136.246761772</ele>
        <time>2015-12-28T09:53:51Z</time>
      </trkpt>
      <trkpt lat="45.471" lon="5.79062">
        <ele>1136.246761772</ele>
        <time>2015-12-28T09:54:02Z</time>
      </trkpt>
      <trkpt lat="45.47102" lon="5.79058">
        <ele>1136.246761772</ele>
        <time>2015-12-28T09:54:07Z</time>
      </trkpt>
      <trkpt lat="45.47109" lon="5.79052">
        <ele>1143.110779615</ele>
        <time>2015-12-28T09:54:17Z</time>
      </trkpt>
      <trkpt lat="45.47112" lon="5.79052">
        <ele>1143.110779615</ele>
        <time>2015-12-28T09:54:22Z</time>
      </trkpt>
      <trkpt lat="45.47112" lon="5.79052">
        <ele>1143.110779615</ele>
        <time>2015-12-28T09:54:32Z</time>
      </trkpt>
      <trkpt lat="45.47112" lon="5.79051">
        <ele>1143.110779615</ele>
        <time>2015-12-28T09:54:37Z</time>
      </trkpt>
      <trkpt lat="45.47115" lon="5.79043">
        <ele>1149.566840214</ele>
        <time>2015-12-28T09:54:52Z</time>
      </trkpt>
      <trkpt lat="45.47115" lon="5.79043">
        <ele>1149.566840214</ele>
        <time>2015-12-28T09:54:57Z</time>
      </trkpt>
      <trkpt lat="45.47115" lon="5.79043">
        <ele>1149.566840214</ele>
        <time>2015-12-28T09:55:07Z</time>
      </trkpt>
      <trkpt lat="45.47115" lon="5.79043">
        <ele>1149.566840214</ele>
        <time>2015-12-28T09:55:12Z</time>
      </trkpt>
      <trkpt lat="45.47121" lon="5.7904">
        <ele>1149.566840214</ele>
        <time>2015-12-28T09:55:22Z</time>
      </trkpt>
      <trkpt lat="45.47122" lon="5.79035">
        <ele>1155.925912296</ele>
        <time>2015-12-28T09:55:27Z</time>
      </trkpt>
      <trkpt lat="45.47124" lon="5.79033">
        <ele>1155.925912296</ele>
        <time>2015-12-28T09:55:37Z</time>
      </trkpt>
      <trkpt lat="45.47126" lon="5.7903">
        <ele>1155.925912296</ele>
        <time>2015-12-28T09:55:42Z</time>
      </trkpt>
      <trkpt lat="45.47135" lon="5.79031">
        <ele>1162.188378767</ele>
        <time>2015-12-28T09:55:57Z</time>
      </trkpt>
      <trkpt lat="45.47139" lon="5.79031">
        <ele>1162.188378767</ele>
        <time>2015-12-28T09:56:07Z</time>
      </trkpt>
      <trkpt lat="45.47138" lon="5.7903">
        <ele>1162.188378767</ele>
        <time>2015-12-28T09:56:12Z</time>
      </trkpt>
      <trkpt lat="45.47138" lon="5.79029">
        <ele>1162.188378767</ele>
        <time>2015-12-28T09:56:16Z</time>
      </trkpt>
      <trkpt lat="45.47138" lon="5.79031">
        <ele>1162.188378767</ele>
        <time>2015-12-28T09:56:22Z</time>
      </trkpt>
      <trkpt lat="45.47138" lon="5.79036">
        <ele>1168.066855544</ele>
        <time>2015-12-28T09:56:27Z</time>
      </trkpt>
      <trkpt lat="45.47138" lon="5.79038">
        <ele>1168.066855544</ele>
        <time>2015-12-28T09:56:32Z</time>
      </trkpt>
      <trkpt lat="45.4714" lon="5.79041">
        <ele>1168.066855544</ele>
        <time>2015-12-28T09:56:37Z</time>
      </trkpt>
      <trkpt lat="45.47139" lon="5.79043">
        <ele>1168.066855544</ele>
        <time>2015-12-28T09:56:42Z</time>
      </trkpt>
      <trkpt lat="45.4714" lon="5.79041">
        <ele>1168.066855544</ele>
        <time>2015-12-28T09:56:46Z</time>
      </trkpt>
      <trkpt lat="45.47146" lon="5.79041">
        <ele>1174.449251517</ele>
        <time>2015-12-28T09:56:57Z</time>
      </trkpt>
      <trkpt lat="45.47149" lon="5.79043">
        <ele>1174.449251517</ele>
        <time>2015-12-28T09:57:02Z</time>
      </trkpt>
      <trkpt lat="45.4716" lon="5.79052">
        <ele>1179.707161779</ele>
        <time>2015-12-28T09:57:12Z</time>
      </trkpt>
      <trkpt lat="45.47162" lon="5.79052">
        <ele>1179.707161779</ele>
        <time>2015-12-28T09:57:17Z</time>
      </trkpt>
      <trkpt lat="45.47169" lon="5.79057">
        <ele>1184.352725507</ele>
        <time>2015-12-28T09:57:27Z</time>
      </trkpt>
      <trkpt lat="45.4717" lon="5.79055">
        <ele>1184.352725507</ele>
        <time>2015-12-28T09:57:32Z</time>
      </trkpt>
      <trkpt lat="45.47171" lon="5.79056">
        <ele>1184.352725507</ele>
        <time>2015-12-28T09:57:42Z</time>
      </trkpt>
      <trkpt lat="45.47171" lon="5.79055">
        <ele>1184.352725507</ele>
        <time>2015-12-28T09:57:47Z</time>
      </trkpt>
      <trkpt lat="45.47178" lon="5.79061">
        <ele>1189.438828773</ele>
        <time>2015-12-28T09:57:56Z</time>
      </trkpt>
      <trkpt lat="45.47182" lon="5.79065">
        <ele>1189.438828773</ele>
        <time>2015-12-28T09:58:02Z</time>
      </trkpt>
      <trkpt lat="45.47187" lon="5.79069">
        <ele>1194.066529146</ele>
        <time>2015-12-28T09:58:12Z</time>
      </trkpt>
      <trkpt lat="45.47189" lon="5.79072">
        <ele>1194.066529146</ele>
        <time>2015-12-28T09:58:16Z</time>
      </trkpt>
      <trkpt lat="45.47196" lon="5.79071">
        <ele>1199.133726384</ele>
        <time>2015-12-28T09:58:27Z</time>
      </trkpt>
      <trkpt lat="45.472" lon="5.79074">
        <ele>1199.133726384</ele>
        <time>2015-12-28T09:58:32Z</time>
      </trkpt>
      <trkpt lat="45.472" lon="5.79072">
        <ele>1199.133726384</ele>
        <time>2015-12-28T09:58:42Z</time>
      </trkpt>
      <trkpt lat="45.47203" lon="5.79073">
        <ele>1204.030191972</ele>
        <time>2015-12-28T09:58:47Z</time>
      </trkpt>
      <trkpt lat="45.47216" lon="5.79074">
        <ele>1208.767613086</ele>
        <time>2015-12-28T09:59:02Z</time>
      </trkpt>
      <trkpt lat="45.47221" lon="5.79074">
        <ele>1208.767613086</ele>
        <time>2015-12-28T09:59:07Z</time>
      </trkpt>
      <trkpt lat="45.47229" lon="5.79071">
        <ele>1213.501530214</ele>
        <time>2015-12-28T09:59:17Z</time>
      </trkpt>
      <trkpt lat="45.47228" lon="5.79069">
        <ele>1213.501530214</ele>
        <time>2015-12-28T09:59:23Z</time>
      </trkpt>
      <trkpt lat="45.47234" lon="5.7907">
        <ele>1213.501530214</ele>
        <time>2015-12-28T09:59:32Z</time>
      </trkpt>
      <trkpt lat="45.4724" lon="5.79071">
        <ele>1218.232100836</ele>
        <time>2015-12-28T09:59:37Z</time>
      </trkpt>
      <trkpt lat="45.47241" lon="5.7907">
        <ele>1218.232100836</ele>
        <time>2015-12-28T09:59:41Z</time>
      </trkpt>
      <trkpt lat="45.47242" lon="5.7907">
        <ele>1218.232100836</ele>
        <time>2015-12-28T09:59:46Z</time>
      </trkpt>
      <trkpt lat="45.47242" lon="5.79071">
        <ele>1218.232100836</ele>
        <time>2015-12-28T09:59:51Z</time>
      </trkpt>
      <trkpt lat="45.47241" lon="5.79069">
        <ele>1218.232100836</ele>
        <time>2015-12-28T09:59:56Z</time>
      </trkpt>
      <trkpt lat="45.47241" lon="5.79069">
        <ele>1218.232100836</ele>
        <time>2015-12-28T10:00:01Z</time>
      </trkpt>
      <trkpt lat="45.47243" lon="5.79067">
        <ele>1218.232100836</ele>
        <time>2015-12-28T10:00:06Z</time>
      </trkpt>
      <trkpt lat="45.47247" lon="5.79065">
        <ele>1222.671391175</ele>
        <time>2015-12-28T10:00:16Z</time>
      </trkpt>
      <trkpt lat="45.47249" lon="5.79063">
        <ele>1222.671391175</ele>
        <time>2015-12-28T10:00:21Z</time>
      </trkpt>
      <trkpt lat="45.47258" lon="5.79068">
        <ele>1226.841779985</ele>
        <time>2015-12-28T10:00:36Z</time>
      </trkpt>
      <trkpt lat="45.47261" lon="5.79068">
        <ele>1226.841779985</ele>
        <time>2015-12-28T10:00:41Z</time>
      </trkpt>
      <trkpt lat="45.47262" lon="5.79069">
        <ele>1226.841779985</ele>
        <time>2015-12-28T10:00:51Z</time>
      </trkpt>
      <trkpt lat="45.47265" lon="5.79073">
        <ele>1226.841779985</ele>
        <time>2015-12-28T10:00:56Z</time>
      </trkpt>
      <trkpt lat="45.47269" lon="5.79076">
        <ele>1230.908976956</ele>
        <time>2015-12-28T10:01:06Z</time>
      </trkpt>
      <trkpt lat="45.47269" lon="5.79076">
        <ele>1230.908976956</ele>
        <time>2015-12-28T10:01:11Z</time>
      </trkpt>
      <trkpt lat="45.47272" lon="5.79079">
        <ele>1230.908976956</ele>
        <time>2015-12-28T10:01:21Z</time>
      </trkpt>
      <trkpt lat="45.47272" lon="5.79079">
        <ele>1230.908976956</ele>
        <time>2015-12-28T10:01:26Z</time>
      </trkpt>
      <trkpt lat="45.47278" lon="5.79078">
        <ele>1234.594570562</ele>
        <time>2015-12-28T10:01:36Z</time>
      </trkpt>
      <trkpt lat="45.47281" lon="5.79076">
        <ele>1234.594570562</ele>
        <time>2015-12-28T10:01:41Z</time>
      </trkpt>
      <trkpt lat="45.47288" lon="5.79077">
        <ele>1238.506420364</ele>
        <time>2015-12-28T10:01:51Z</time>
      </trkpt>
      <trkpt lat="45.47291" lon="5.79079">
        <ele>1238.506420364</ele>
        <time>2015-12-28T10:01:57Z</time>
      </trkpt>
      <trkpt lat="45.47294" lon="5.7908">
        <ele>1238.506420364</ele>
        <time>2015-12-28T10:02:07Z</time>
      </trkpt>
      <trkpt lat="45.47298" lon="5.79084">
        <ele>1242.342498339</ele>
        <time>2015-12-28T10:02:12Z</time>
      </trkpt>
      <trkpt lat="45.47303" lon="5.79085">
        <ele>1242.342498339</ele>
        <time>2015-12-28T10:02:22Z</time>
      </trkpt>
      <trkpt lat="45.47305" lon="5.79086">
        <ele>1242.342498339</ele>
        <time>2015-12-28T10:02:27Z</time>
      </trkpt>
      <trkpt lat="45.47316" lon="5.79089">
        <ele>1247.840788102</ele>
        <time>2015-12-28T10:02:41Z</time>
      </trkpt>
      <trkpt lat="45.47321" lon="5.79091">
        <ele>1247.840788102</ele>
        <time>2015-12-28T10:02:47Z</time>
      </trkpt>
      <trkpt lat="45.47324" lon="5.79089">
        <ele>1247.840788102</ele>
        <time>2015-12-28T10:02:58Z</time>
      </trkpt>
      <trkpt lat="45.47328" lon="5.79089">
        <ele>1253.004206629</ele>
        <time>2015-12-28T10:03:02Z</time>
      </trkpt>
      <trkpt lat="45.47329" lon="5.79096">
        <ele>1253.004206629</ele>
        <time>2015-12-28T10:03:12Z</time>
      </trkpt>
      <trkpt lat="45.47331" lon="5.79093">
        <ele>1253.004206629</ele>
        <time>2015-12-28T10:03:17Z</time>
      </trkpt>
      <trkpt lat="45.47339" lon="5.79092">
        <ele>1291.578872758</ele>
        <time>2015-12-28T10:03:27Z</time>
      </trkpt>
      <trkpt lat="45.47344" lon="5.79092">
        <ele>1291.578872758</ele>
        <time>2015-12-28T10:03:32Z</time>
      </trkpt>
      <trkpt lat="45.47354" lon="5.79092">
        <ele>1296.59863845</ele>
        <time>2015-12-28T10:03:41Z</time>
      </trkpt>
      <trkpt lat="45.47361" lon="5.79094">
        <ele>1296.59863845</ele>
        <time>2015-12-28T10:03:47Z</time>
      </trkpt>
      <trkpt lat="45.47365" lon="5.79092">
        <ele>1298.198007437</ele>
        <time>2015-12-28T10:03:56Z</time>
      </trkpt>
      <trkpt lat="45.4737" lon="5.79094">
        <ele>1298.198007437</ele>
        <time>2015-12-28T10:04:01Z</time>
      </trkpt>
      <trkpt lat="45.47373" lon="5.79095">
        <ele>1298.198007437</ele>
        <time>2015-12-28T10:04:16Z</time>
      </trkpt>
      <trkpt lat="45.47374" lon="5.79096">
        <ele>1325.028246937</ele>
        <time>2015-12-28T10:04:21Z</time>
      </trkpt>
      <trkpt lat="45.47374" lon="5.79095">
        <ele>1325.028246937</ele>
        <time>2015-12-28T10:04:31Z</time>
      </trkpt>
      <trkpt lat="45.47375" lon="5.79096">
        <ele>1325.028246937</ele>
        <time>2015-12-28T10:04:36Z</time>
      </trkpt>
      <trkpt lat="45.47379" lon="5.791">
        <ele>1325.028246937</ele>
        <time>2015-12-28T10:04:46Z</time>
      </trkpt>
      <trkpt lat="45.47381" lon="5.791">
        <ele>1325.028246937</ele>
        <time>2015-12-28T10:04:52Z</time>
      </trkpt>
      <trkpt lat="45.47394" lon="5.79097">
        <ele>1323.871973307</ele>
        <time>2015-12-28T10:05:02Z</time>
      </trkpt>
      <trkpt lat="45.474" lon="5.79097">
        <ele>1323.871973307</ele>
        <time>2015-12-28T10:05:06Z</time>
      </trkpt>
      <trkpt lat="45.47406" lon="5.79095">
        <ele>1323.031742535</ele>
        <time>2015-12-28T10:05:17Z</time>
      </trkpt>
      <trkpt lat="45.4741" lon="5.79097">
        <ele>1323.031742535</ele>
        <time>2015-12-28T10:05:21Z</time>
      </trkpt>
      <trkpt lat="45.47426" lon="5.79098">
        <ele>1321.349296576</ele>
        <time>2015-12-28T10:05:32Z</time>
      </trkpt>
      <trkpt lat="45.47427" lon="5.79098">
        <ele>1321.349296576</ele>
        <time>2015-12-28T10:05:36Z</time>
      </trkpt>
      <trkpt lat="45.47432" lon="5.79101">
        <ele>1321.349296576</ele>
        <time>2015-12-28T10:05:47Z</time>
      </trkpt>
      <trkpt lat="45.47432" lon="5.79104">
        <ele>1318.618732417</ele>
        <time>2015-12-28T10:05:53Z</time>
      </trkpt>
      <trkpt lat="45.47439" lon="5.79111">
        <ele>1318.618732417</ele>
        <time>2015-12-28T10:06:01Z</time>
      </trkpt>
      <trkpt lat="45.47443" lon="5.79114">
        <ele>1316.381707056</ele>
        <time>2015-12-28T10:06:08Z</time>
      </trkpt>
      <trkpt lat="45.47455" lon="5.79119">
        <ele>1314.480104401</ele>
        <time>2015-12-28T10:06:17Z</time>
      </trkpt>
      <trkpt lat="45.47457" lon="5.79121">
        <ele>1314.480104401</ele>
        <time>2015-12-28T10:06:21Z</time>
      </trkpt>
      <trkpt lat="45.47468" lon="5.79133">
        <ele>1312.334159184</ele>
        <time>2015-12-28T10:06:32Z</time>
      </trkpt>
      <trkpt lat="45.47472" lon="5.79133">
        <ele>1312.334159184</ele>
        <time>2015-12-28T10:06:37Z</time>
      </trkpt>
      <trkpt lat="45.47474" lon="5.79143">
        <ele>1310.992547362</ele>
        <time>2015-12-28T10:06:51Z</time>
      </trkpt>
      <trkpt lat="45.47475" lon="5.79145">
        <ele>1310.992547362</ele>
        <time>2015-12-28T10:06:56Z</time>
      </trkpt>
      <trkpt lat="45.47476" lon="5.79146">
        <ele>1310.992547362</ele>
        <time>2015-12-28T10:07:06Z</time>
      </trkpt>
      <trkpt lat="45.47476" lon="5.79146">
        <ele>1310.992547362</ele>
        <time>2015-12-28T10:07:11Z</time>
      </trkpt>
      <trkpt lat="45.47479" lon="5.79152">
        <ele>1310.992547362</ele>
        <time>2015-12-28T10:07:22Z</time>
      </trkpt>
      <trkpt lat="45.47481" lon="5.79159">
        <ele>1309.983426731</ele>
        <time>2015-12-28T10:07:27Z</time>
      </trkpt>
      <trkpt lat="45.47488" lon="5.79162">
        <ele>1309.983426731</ele>
        <time>2015-12-28T10:07:37Z</time>
      </trkpt>
      <trkpt lat="45.4749" lon="5.79161">
        <ele>1309.983426731</ele>
        <time>2015-12-28T10:07:43Z</time>
      </trkpt>
      <trkpt lat="45.47498" lon="5.79164">
        <ele>1310.597853623</ele>
        <time>2015-12-28T10:07:52Z</time>
      </trkpt>
      <trkpt lat="45.47502" lon="5.79163">
        <ele>1310.597853623</ele>
        <time>2015-12-28T10:07:57Z</time>
      </trkpt>
      <trkpt lat="45.47513" lon="5.79165">
        <ele>1311.865618632</ele>
        <time>2015-12-28T10:08:06Z</time>
      </trkpt>
      <trkpt lat="45.47515" lon="5.79159">
        <ele>1311.865618632</ele>
        <time>2015-12-28T10:08:11Z</time>
      </trkpt>
      <trkpt lat="45.47522" lon="5.79154">
        <ele>1312.741605351</ele>
        <time>2015-12-28T10:08:21Z</time>
      </trkpt>
      <trkpt lat="45.47523" lon="5.79152">
        <ele>1312.741605351</ele>
        <time>2015-12-28T10:08:27Z</time>
      </trkpt>
      <trkpt lat="45.47532" lon="5.79149">
        <ele>1313.843536218</ele>
        <time>2015-12-28T10:08:41Z</time>
      </trkpt>
      <trkpt lat="45.47544" lon="5.79151">
        <ele>1314.734069967</ele>
        <time>2015-12-28T10:08:57Z</time>
      </trkpt>
      <trkpt lat="45.4755" lon="5.79151">
        <ele>1314.734069967</ele>
        <time>2015-12-28T10:09:02Z</time>
      </trkpt>
      <trkpt lat="45.4756" lon="5.79145">
        <ele>1315.44062916</ele>
        <time>2015-12-28T10:09:12Z</time>
      </trkpt>
      <trkpt lat="45.47561" lon="5.79145">
        <ele>1315.44062916</ele>
        <time>2015-12-28T10:09:17Z</time>
      </trkpt>
      <trkpt lat="45.47565" lon="5.7915">
        <ele>1315.44062916</ele>
        <time>2015-12-28T10:09:30Z</time>
      </trkpt>
      <trkpt lat="45.47567" lon="5.79155">
        <ele>1310.800823112</ele>
        <time>2015-12-28T10:09:32Z</time>
      </trkpt>
      <trkpt lat="45.47572" lon="5.79164">
        <ele>1310.800823112</ele>
        <time>2015-12-28T10:09:41Z</time>
      </trkpt>
      <trkpt lat="45.47575" lon="5.79164">
        <ele>1309.736711274</ele>
        <time>2015-12-28T10:09:46Z</time>
      </trkpt>
      <trkpt lat="45.47587" lon="5.79167">
        <ele>1309.119770343</ele>
        <time>2015-12-28T10:09:56Z</time>
      </trkpt>
      <trkpt lat="45.47593" lon="5.79166">
        <ele>1309.119770343</ele>
        <time>2015-12-28T10:10:02Z</time>
      </trkpt>
      <trkpt lat="45.47593" lon="5.79163">
        <ele>1309.119770343</ele>
        <time>2015-12-28T10:10:16Z</time>
      </trkpt>
      <trkpt lat="45.47593" lon="5.79163">
        <ele>1309.119770343</ele>
        <time>2015-12-28T10:10:21Z</time>
      </trkpt>
      <trkpt lat="45.47593" lon="5.79163">
        <ele>1309.119770343</ele>
        <time>2015-12-28T10:10:32Z</time>
      </trkpt>
      <trkpt lat="45.47593" lon="5.79163">
        <ele>1309.119770343</ele>
        <time>2015-12-28T10:10:36Z</time>
      </trkpt>
      <trkpt lat="45.47594" lon="5.79164">
        <ele>1310.228883017</ele>
        <time>2015-12-28T10:10:47Z</time>
      </trkpt>
      <trkpt lat="45.47594" lon="5.79164">
        <ele>1310.228883017</ele>
        <time>2015-12-28T10:10:51Z</time>
      </trkpt>
      <trkpt lat="45.47594" lon="5.79164">
        <ele>1310.228883017</ele>
        <time>2015-12-28T10:11:02Z</time>
      </trkpt>
      <trkpt lat="45.47594" lon="5.79164">
        <ele>1310.228883017</ele>
        <time>2015-12-28T10:11:06Z</time>
      </trkpt>
      <trkpt lat="45.47594" lon="5.79168">
        <ele>1310.228883017</ele>
        <time>2015-12-28T10:11:16Z</time>
      </trkpt>
      <trkpt lat="45.47599" lon="5.79169">
        <ele>1310.228883017</ele>
        <time>2015-12-28T10:11:21Z</time>
      </trkpt>
      <trkpt lat="45.47606" lon="5.79171">
        <ele>1311.649744187</ele>
        <time>2015-12-28T10:11:31Z</time>
      </trkpt>
      <trkpt lat="45.47613" lon="5.79172">
        <ele>1311.649744187</ele>
        <time>2015-12-28T10:11:36Z</time>
      </trkpt>
      <trkpt lat="45.47622" lon="5.79176">
        <ele>1313.079443906</ele>
        <time>2015-12-28T10:11:46Z</time>
      </trkpt>
      <trkpt lat="45.47627" lon="5.79181">
        <ele>1313.079443906</ele>
        <time>2015-12-28T10:11:51Z</time>
      </trkpt>
      <trkpt lat="45.47636" lon="5.7919">
        <ele>1314.236898544</ele>
        <time>2015-12-28T10:12:02Z</time>
      </trkpt>
      <trkpt lat="45.47642" lon="5.79191">
        <ele>1314.236898544</ele>
        <time>2015-12-28T10:12:07Z</time>
      </trkpt>
      <trkpt lat="45.4765" lon="5.792">
        <ele>1316.159043461</ele>
        <time>2015-12-28T10:12:17Z</time>
      </trkpt>
      <trkpt lat="45.47652" lon="5.79199">
        <ele>1316.159043461</ele>
        <time>2015-12-28T10:12:21Z</time>
      </trkpt>
      <trkpt lat="45.47656" lon="5.79195">
        <ele>1316.159043461</ele>
        <time>2015-12-28T10:12:26Z</time>
      </trkpt>
      <trkpt lat="45.47658" lon="5.79193">
        <ele>1317.498331599</ele>
        <time>2015-12-28T10:12:36Z</time>
      </trkpt>
      <trkpt lat="45.47658" lon="5.79192">
        <ele>1317.498331599</ele>
        <time>2015-12-28T10:12:41Z</time>
      </trkpt>
      <trkpt lat="45.47663" lon="5.79197">
        <ele>1317.498331599</ele>
        <time>2015-12-28T10:12:52Z</time>
      </trkpt>
      <trkpt lat="45.47666" lon="5.79199">
        <ele>1318.304463069</ele>
        <time>2015-12-28T10:12:56Z</time>
      </trkpt>
      <trkpt lat="45.4767" lon="5.79202">
        <ele>1318.304463069</ele>
        <time>2015-12-28T10:13:07Z</time>
      </trkpt>
      <trkpt lat="45.4767" lon="5.79203">
        <ele>1318.304463069</ele>
        <time>2015-12-28T10:13:11Z</time>
      </trkpt>
      <trkpt lat="45.47671" lon="5.79204">
        <ele>1318.304463069</ele>
        <time>2015-12-28T10:13:22Z</time>
      </trkpt>
      <trkpt lat="45.47671" lon="5.79205">
        <ele>1318.304463069</ele>
        <time>2015-12-28T10:13:27Z</time>
      </trkpt>
      <trkpt lat="45.47683" lon="5.79218">
        <ele>1318.912833558</ele>
        <time>2015-12-28T10:13:37Z</time>
      </trkpt>
      <trkpt lat="45.47688" lon="5.7922">
        <ele>1318.912833558</ele>
        <time>2015-12-28T10:13:41Z</time>
      </trkpt>
      <trkpt lat="45.47702" lon="5.79219">
        <ele>1319.778501763</ele>
        <time>2015-12-28T10:13:53Z</time>
      </trkpt>
      <trkpt lat="45.47704" lon="5.79218">
        <ele>1319.778501763</ele>
        <time>2015-12-28T10:13:57Z</time>
      </trkpt>
      <trkpt lat="45.47716" lon="5.79222">
        <ele>1320.457349152</ele>
        <time>2015-12-28T10:14:08Z</time>
      </trkpt>
      <trkpt lat="45.47721" lon="5.79218">
        <ele>1320.457349152</ele>
        <time>2015-12-28T10:14:11Z</time>
      </trkpt>
      <trkpt lat="45.47726" lon="5.79221">
        <ele>1320.682161007</ele>
        <time>2015-12-28T10:14:26Z</time>
      </trkpt>
      <trkpt lat="45.47728" lon="5.79221">
        <ele>1320.682161007</ele>
        <time>2015-12-28T10:14:31Z</time>
      </trkpt>
      <trkpt lat="45.47742" lon="5.79225">
        <ele>1321.35916374</ele>
        <time>2015-12-28T10:14:42Z</time>
      </trkpt>
      <trkpt lat="45.47746" lon="5.79224">
        <ele>1321.35916374</ele>
        <time>2015-12-28T10:14:46Z</time>
      </trkpt>
      <trkpt lat="45.47759" lon="5.79228">
        <ele>1321.452951973</ele>
        <time>2015-12-28T10:14:57Z</time>
      </trkpt>
      <trkpt lat="45.47769" lon="5.79236">
        <ele>1321.446584782</ele>
        <time>2015-12-28T10:15:01Z</time>
      </trkpt>
      <trkpt lat="45.47782" lon="5.79237">
        <ele>1321.0670203</ele>
        <time>2015-12-28T10:15:11Z</time>
      </trkpt>
      <trkpt lat="45.4779" lon="5.79247">
        <ele>1320.206092863</ele>
        <time>2015-12-28T10:15:17Z</time>
      </trkpt>
      <trkpt lat="45.47796" lon="5.79248">
        <ele>1320.206092863</ele>
        <time>2015-12-28T10:15:26Z</time>
      </trkpt>
      <trkpt lat="45.47796" lon="5.79248">
        <ele>1320.206092863</ele>
        <time>2015-12-28T10:15:32Z</time>
      </trkpt>
      <trkpt lat="45.478" lon="5.79253">
        <ele>1319.629261034</ele>
        <time>2015-12-28T10:15:42Z</time>
      </trkpt>
      <trkpt lat="45.47806" lon="5.79255">
        <ele>1319.629261034</ele>
        <time>2015-12-28T10:15:48Z</time>
      </trkpt>
      <trkpt lat="45.47807" lon="5.79256">
        <ele>1319.629261034</ele>
        <time>2015-12-28T10:15:57Z</time>
      </trkpt>
      <trkpt lat="45.47809" lon="5.79259">
        <ele>1318.74761628</ele>
        <time>2015-12-28T10:16:01Z</time>
      </trkpt>
      <trkpt lat="45.47826" lon="5.79272">
        <ele>1317.44835853</ele>
        <time>2015-12-28T10:16:11Z</time>
      </trkpt>
      <trkpt lat="45.47831" lon="5.79277">
        <ele>1317.44835853</ele>
        <time>2015-12-28T10:16:16Z</time>
      </trkpt>
      <trkpt lat="45.47846" lon="5.79285">
        <ele>1316.204247585</ele>
        <time>2015-12-28T10:16:26Z</time>
      </trkpt>
      <trkpt lat="45.47852" lon="5.7929">
        <ele>1316.204247585</ele>
        <time>2015-12-28T10:16:31Z</time>
      </trkpt>
      <trkpt lat="45.47859" lon="5.79299">
        <ele>1314.876371131</ele>
        <time>2015-12-28T10:16:41Z</time>
      </trkpt>
      <trkpt lat="45.47864" lon="5.79305">
        <ele>1314.876371131</ele>
        <time>2015-12-28T10:16:46Z</time>
      </trkpt>
      <trkpt lat="45.47867" lon="5.79304">
        <ele>1312.903575916</ele>
        <time>2015-12-28T10:16:56Z</time>
      </trkpt>
      <trkpt lat="45.47867" lon="5.79305">
        <ele>1312.903575916</ele>
        <time>2015-12-28T10:17:02Z</time>
      </trkpt>
      <trkpt lat="45.4787" lon="5.7931">
        <ele>1312.903575916</ele>
        <time>2015-12-28T10:17:13Z</time>
      </trkpt>
      <trkpt lat="45.4787" lon="5.79311">
        <ele>1312.903575916</ele>
        <time>2015-12-28T10:17:17Z</time>
      </trkpt>
      <trkpt lat="45.47876" lon="5.79316">
        <ele>1310.920279351</ele>
        <time>2015-12-28T10:17:27Z</time>
      </trkpt>
      <trkpt lat="45.47881" lon="5.79322">
        <ele>1310.920279351</ele>
        <time>2015-12-28T10:17:32Z</time>
      </trkpt>
      <trkpt lat="45.47883" lon="5.79321">
        <ele>1310.920279351</ele>
        <time>2015-12-28T10:17:36Z</time>
      </trkpt>
      <trkpt lat="45.47887" lon="5.79327">
        <ele>1308.649303883</ele>
        <time>2015-12-28T10:17:43Z</time>
      </trkpt>
      <trkpt lat="45.47888" lon="5.79327">
        <ele>1308.649303883</ele>
        <time>2015-12-28T10:17:47Z</time>
      </trkpt>
      <trkpt lat="45.47888" lon="5.7933">
        <ele>1308.649303883</ele>
        <time>2015-12-28T10:17:58Z</time>
      </trkpt>
      <trkpt lat="45.4789" lon="5.79333">
        <ele>1308.649303883</ele>
        <time>2015-12-28T10:18:02Z</time>
      </trkpt>
      <trkpt lat="45.47891" lon="5.79337">
        <ele>1308.649303883</ele>
        <time>2015-12-28T10:18:07Z</time>
      </trkpt>
      <trkpt lat="45.47897" lon="5.79347">
        <ele>1305.546058897</ele>
        <time>2015-12-28T10:18:17Z</time>
      </trkpt>
      <trkpt lat="45.47895" lon="5.79349">
        <ele>1305.546058897</ele>
        <time>2015-12-28T10:18:21Z</time>
      </trkpt>
      <trkpt lat="45.47898" lon="5.79353">
        <ele>1305.546058897</ele>
        <time>2015-12-28T10:18:32Z</time>
      </trkpt>
      <trkpt lat="45.47898" lon="5.79353">
        <ele>1305.546058897</ele>
        <time>2015-12-28T10:18:36Z</time>
      </trkpt>
      <trkpt lat="45.47903" lon="5.79361">
        <ele>1302.837262829</ele>
        <time>2015-12-28T10:18:47Z</time>
      </trkpt>
      <trkpt lat="45.47905" lon="5.79365">
        <ele>1302.837262829</ele>
        <time>2015-12-28T10:18:52Z</time>
      </trkpt>
      <trkpt lat="45.47908" lon="5.7937">
        <ele>1302.837262829</ele>
        <time>2015-12-28T10:19:06Z</time>
      </trkpt>
      <trkpt lat="45.47908" lon="5.7937">
        <ele>1302.837262829</ele>
        <time>2015-12-28T10:19:11Z</time>
      </trkpt>
      <trkpt lat="45.4791" lon="5.79375">
        <ele>1299.640485185</ele>
        <time>2015-12-28T10:19:21Z</time>
      </trkpt>
      <trkpt lat="45.47912" lon="5.79378">
        <ele>1299.640485185</ele>
        <time>2015-12-28T10:19:33Z</time>
      </trkpt>
      <trkpt lat="45.47921" lon="5.79388">
        <ele>1296.436108413</ele>
        <time>2015-12-28T10:19:37Z</time>
      </trkpt>
      <trkpt lat="45.47925" lon="5.79393">
        <ele>1296.436108413</ele>
        <time>2015-12-28T10:19:46Z</time>
      </trkpt>
      <trkpt lat="45.47926" lon="5.79394">
        <ele>1296.436108413</ele>
        <time>2015-12-28T10:19:51Z</time>
      </trkpt>
      <trkpt lat="45.47926" lon="5.79391">
        <ele>1293.092416524</ele>
        <time>2015-12-28T10:19:56Z</time>
      </trkpt>
      <trkpt lat="45.47935" lon="5.79404">
        <ele>1289.77558994</ele>
        <time>2015-12-28T10:20:11Z</time>
      </trkpt>
      <trkpt lat="45.47938" lon="5.79403">
        <ele>1289.77558994</ele>
        <time>2015-12-28T10:20:16Z</time>
      </trkpt>
      <trkpt lat="45.47944" lon="5.79402">
        <ele>1286.639128666</ele>
        <time>2015-12-28T10:20:26Z</time>
      </trkpt>
      <trkpt lat="45.47945" lon="5.79403">
        <ele>1286.639128666</ele>
        <time>2015-12-28T10:20:31Z</time>
      </trkpt>
      <trkpt lat="45.47948" lon="5.79402">
        <ele>1286.639128666</ele>
        <time>2015-12-28T10:20:41Z</time>
      </trkpt>
      <trkpt lat="45.47949" lon="5.79401">
        <ele>1286.639128666</ele>
        <time>2015-12-28T10:20:46Z</time>
      </trkpt>
      <trkpt lat="45.47954" lon="5.79392">
        <ele>1283.536127485</ele>
        <time>2015-12-28T10:20:56Z</time>
      </trkpt>
      <trkpt lat="45.4796" lon="5.79382">
        <ele>1283.536127485</ele>
        <time>2015-12-28T10:21:01Z</time>
      </trkpt>
      <trkpt lat="45.47962" lon="5.79374">
        <ele>1280.041753374</ele>
        <time>2015-12-28T10:21:06Z</time>
      </trkpt>
      <trkpt lat="45.47966" lon="5.79365">
        <ele>1280.041753374</ele>
        <time>2015-12-28T10:21:11Z</time>
      </trkpt>
      <trkpt lat="45.47969" lon="5.79363">
        <ele>1276.62774221</ele>
        <time>2015-12-28T10:21:16Z</time>
      </trkpt>
      <trkpt lat="45.47978" lon="5.7937">
        <ele>1273.298213727</ele>
        <time>2015-12-28T10:21:26Z</time>
      </trkpt>
      <trkpt lat="45.47979" lon="5.79371">
        <ele>1273.298213727</ele>
        <time>2015-12-28T10:21:31Z</time>
      </trkpt>
      <trkpt lat="45.47978" lon="5.79372">
        <ele>1273.298213727</ele>
        <time>2015-12-28T10:21:36Z</time>
      </trkpt>
      <trkpt lat="45.47982" lon="5.7938">
        <ele>1273.298213727</ele>
        <time>2015-12-28T10:21:41Z</time>
      </trkpt>
      <trkpt lat="45.47979" lon="5.7938">
        <ele>1271.641570979</ele>
        <time>2015-12-28T10:21:51Z</time>
      </trkpt>
      <trkpt lat="45.47986" lon="5.79387">
        <ele>1271.641570979</ele>
        <time>2015-12-28T10:21:56Z</time>
      </trkpt>
      <trkpt lat="45.47997" lon="5.79403">
        <ele>1271.106893521</ele>
        <time>2015-12-28T10:22:06Z</time>
      </trkpt>
      <trkpt lat="45.47999" lon="5.79414">
        <ele>1271.106893521</ele>
        <time>2015-12-28T10:22:11Z</time>
      </trkpt>
      <trkpt lat="45.48012" lon="5.79444">
        <ele>1270.459651183</ele>
        <time>2015-12-28T10:22:23Z</time>
      </trkpt>
      <trkpt lat="45.48015" lon="5.79458">
        <ele>1270.285295511</ele>
        <time>2015-12-28T10:22:26Z</time>
      </trkpt>
      <trkpt lat="45.48037" lon="5.79481">
        <ele>1268.674721503</ele>
        <time>2015-12-28T10:22:42Z</time>
      </trkpt>
      <trkpt lat="45.48042" lon="5.79495">
        <ele>1267.609675322</ele>
        <time>2015-12-28T10:22:47Z</time>
      </trkpt>
      <trkpt lat="45.48054" lon="5.79526">
        <ele>1266.618727428</ele>
        <time>2015-12-28T10:22:56Z</time>
      </trkpt>
      <trkpt lat="45.4806" lon="5.79533">
        <ele>1266.618727428</ele>
        <time>2015-12-28T10:23:01Z</time>
      </trkpt>
      <trkpt lat="45.48072" lon="5.79561">
        <ele>1265.120489947</ele>
        <time>2015-12-28T10:23:11Z</time>
      </trkpt>
      <trkpt lat="45.4808" lon="5.79568">
        <ele>1263.58623092</ele>
        <time>2015-12-28T10:23:16Z</time>
      </trkpt>
      <trkpt lat="45.48097" lon="5.79595">
        <ele>1251.499995395</ele>
        <time>2015-12-28T10:23:26Z</time>
      </trkpt>
      <trkpt lat="45.48109" lon="5.79603">
        <ele>1245.231783902</ele>
        <time>2015-12-28T10:23:31Z</time>
      </trkpt>
      <trkpt lat="45.48118" lon="5.79599">
        <ele>1243.936131333</ele>
        <time>2015-12-28T10:23:41Z</time>
      </trkpt>
      <trkpt lat="45.4812" lon="5.79598">
        <ele>1243.936131333</ele>
        <time>2015-12-28T10:23:46Z</time>
      </trkpt>
      <trkpt lat="45.4812" lon="5.79597">
        <ele>1243.936131333</ele>
        <time>2015-12-28T10:23:51Z</time>
      </trkpt>
      <trkpt lat="45.4812" lon="5.79597">
        <ele>1243.936131333</ele>
        <time>2015-12-28T10:23:56Z</time>
      </trkpt>
      <trkpt lat="45.4812" lon="5.79597">
        <ele>1243.936131333</ele>
        <time>2015-12-28T10:24:01Z</time>
      </trkpt>
      <trkpt lat="45.48123" lon="5.79597">
        <ele>1243.936131333</ele>
        <time>2015-12-28T10:24:06Z</time>
      </trkpt>
      <trkpt lat="45.48131" lon="5.79603">
        <ele>1244.797891533</ele>
        <time>2015-12-28T10:24:11Z</time>
      </trkpt>
      <trkpt lat="45.48143" lon="5.79611">
        <ele>1246.787610895</ele>
        <time>2015-12-28T10:24:21Z</time>
      </trkpt>
      <trkpt lat="45.48144" lon="5.79611">
        <ele>1246.787610895</ele>
        <time>2015-12-28T10:24:26Z</time>
      </trkpt>
      <trkpt lat="45.48168" lon="5.79628">
        <ele>1249.236270355</ele>
        <time>2015-12-28T10:24:36Z</time>
      </trkpt>
      <trkpt lat="45.48176" lon="5.7963">
        <ele>1249.236270355</ele>
        <time>2015-12-28T10:24:41Z</time>
      </trkpt>
      <trkpt lat="45.48198" lon="5.79643">
        <ele>1251.666616582</ele>
        <time>2015-12-28T10:24:51Z</time>
      </trkpt>
      <trkpt lat="45.48206" lon="5.79647">
        <ele>1251.666616582</ele>
        <time>2015-12-28T10:24:57Z</time>
      </trkpt>
      <trkpt lat="45.48212" lon="5.79658">
        <ele>1254.501016673</ele>
        <time>2015-12-28T10:25:01Z</time>
      </trkpt>
      <trkpt lat="45.48227" lon="5.79656">
        <ele>1256.112009107</ele>
        <time>2015-12-28T10:25:06Z</time>
      </trkpt>
      <trkpt lat="45.48236" lon="5.79652">
        <ele>1257.012601325</ele>
        <time>2015-12-28T10:25:11Z</time>
      </trkpt>
      <trkpt lat="45.48238" lon="5.7965">
        <ele>1257.012601325</ele>
        <time>2015-12-28T10:25:16Z</time>
      </trkpt>
      <trkpt lat="45.48239" lon="5.7965">
        <ele>1257.012601325</ele>
        <time>2015-12-28T10:25:26Z</time>
      </trkpt>
      <trkpt lat="45.48239" lon="5.79651">
        <ele>1257.012601325</ele>
        <time>2015-12-28T10:25:31Z</time>
      </trkpt>
      <trkpt lat="45.4824" lon="5.79651">
        <ele>1257.012601325</ele>
        <time>2015-12-28T10:25:46Z</time>
      </trkpt>
      <trkpt lat="45.48244" lon="5.79651">
        <ele>1257.012601325</ele>
        <time>2015-12-28T10:25:51Z</time>
      </trkpt>
      <trkpt lat="45.48254" lon="5.79644">
        <ele>1257.968293765</ele>
        <time>2015-12-28T10:26:01Z</time>
      </trkpt>
      <trkpt lat="45.48263" lon="5.79642">
        <ele>1257.968293765</ele>
        <time>2015-12-28T10:26:06Z</time>
      </trkpt>
      <trkpt lat="45.48277" lon="5.79614">
        <ele>1257.814743941</ele>
        <time>2015-12-28T10:26:18Z</time>
      </trkpt>
      <trkpt lat="45.4828" lon="5.79597">
        <ele>1258.790822388</ele>
        <time>2015-12-28T10:26:22Z</time>
      </trkpt>
      <trkpt lat="45.48281" lon="5.79581">
        <ele>1260.373796291</ele>
        <time>2015-12-28T10:26:32Z</time>
      </trkpt>
      <trkpt lat="45.48281" lon="5.79561">
        <ele>1262.221793832</ele>
        <time>2015-12-28T10:26:36Z</time>
      </trkpt>
      <trkpt lat="45.48281" lon="5.79555">
        <ele>1262.221793832</ele>
        <time>2015-12-28T10:26:41Z</time>
      </trkpt>
      <trkpt lat="45.48282" lon="5.79552">
        <ele>1262.221793832</ele>
        <time>2015-12-28T10:26:46Z</time>
      </trkpt>
      <trkpt lat="45.48276" lon="5.7954">
        <ele>1263.729163877</ele>
        <time>2015-12-28T10:26:51Z</time>
      </trkpt>
      <trkpt lat="45.48277" lon="5.79516">
        <ele>1265.632796754</ele>
        <time>2015-12-28T10:27:01Z</time>
      </trkpt>
      <trkpt lat="45.48297" lon="5.7949">
        <ele>1268.470345789</ele>
        <time>2015-12-28T10:27:16Z</time>
      </trkpt>
      <trkpt lat="45.48301" lon="5.79479">
        <ele>1268.470345789</ele>
        <time>2015-12-28T10:27:22Z</time>
      </trkpt>
      <trkpt lat="45.48304" lon="5.79445">
        <ele>1270.431708208</ele>
        <time>2015-12-28T10:27:36Z</time>
      </trkpt>
      <trkpt lat="45.48302" lon="5.79431">
        <ele>1272.148144599</ele>
        <time>2015-12-28T10:27:36Z</time>
      </trkpt>
      <trkpt lat="45.48296" lon="5.79393">
        <ele>1274.493629471</ele>
        <time>2015-12-28T10:27:47Z</time>
      </trkpt>
      <trkpt lat="45.48297" lon="5.79385">
        <ele>1274.493629471</ele>
        <time>2015-12-28T10:27:52Z</time>
      </trkpt>
      <trkpt lat="45.48289" lon="5.79368">
        <ele>1278.132255397</ele>
        <time>2015-12-28T10:28:01Z</time>
      </trkpt>
      <trkpt lat="45.48284" lon="5.79362">
        <ele>1278.132255397</ele>
        <time>2015-12-28T10:28:06Z</time>
      </trkpt>
      <trkpt lat="45.48272" lon="5.79342">
        <ele>1281.946583641</ele>
        <time>2015-12-28T10:28:17Z</time>
      </trkpt>
      <trkpt lat="45.48265" lon="5.79328">
        <ele>1285.477447693</ele>
        <time>2015-12-28T10:28:22Z</time>
      </trkpt>
      <trkpt lat="45.4824" lon="5.79305">
        <ele>1286.28290042</ele>
        <time>2015-12-28T10:28:36Z</time>
      </trkpt>
      <trkpt lat="45.48232" lon="5.79311">
        <ele>1286.143397897</ele>
        <time>2015-12-28T10:28:41Z</time>
      </trkpt>
      <trkpt lat="45.48228" lon="5.7931">
        <ele>1286.143397897</ele>
        <time>2015-12-28T10:28:51Z</time>
      </trkpt>
      <trkpt lat="45.48225" lon="5.79304">
        <ele>1286.143397897</ele>
        <time>2015-12-28T10:28:56Z</time>
      </trkpt>
      <trkpt lat="45.48222" lon="5.79294">
        <ele>1311.06634926</ele>
        <time>2015-12-28T10:29:06Z</time>
      </trkpt>
      <trkpt lat="45.48221" lon="5.79286">
        <ele>1311.06634926</ele>
        <time>2015-12-28T10:29:11Z</time>
      </trkpt>
      <trkpt lat="45.4822" lon="5.79274">
        <ele>1310.57322292</ele>
        <time>2015-12-28T10:29:21Z</time>
      </trkpt>
      <trkpt lat="45.48218" lon="5.79271">
        <ele>1310.57322292</ele>
        <time>2015-12-28T10:29:26Z</time>
      </trkpt>
      <trkpt lat="45.48213" lon="5.79267">
        <ele>1310.57322292</ele>
        <time>2015-12-28T10:29:37Z</time>
      </trkpt>
      <trkpt lat="45.48213" lon="5.79267">
        <ele>1306.129845738</ele>
        <time>2015-12-28T10:29:41Z</time>
      </trkpt>
      <trkpt lat="45.48213" lon="5.79266">
        <ele>1306.129845738</ele>
        <time>2015-12-28T10:29:53Z</time>
      </trkpt>
      <trkpt lat="45.48213" lon="5.79266">
        <ele>1306.129845738</ele>
        <time>2015-12-28T10:29:56Z</time>
      </trkpt>
      <trkpt lat="45.48219" lon="5.79246">
        <ele>1303.081400642</ele>
        <time>2015-12-28T10:30:02Z</time>
      </trkpt>
      <trkpt lat="45.48241" lon="5.79214">
        <ele>1297.874300369</ele>
        <time>2015-12-28T10:30:11Z</time>
      </trkpt>
      <trkpt lat="45.4824" lon="5.79199">
        <ele>1292.266247763</ele>
        <time>2015-12-28T10:30:16Z</time>
      </trkpt>
      <trkpt lat="45.48241" lon="5.79178">
        <ele>1286.878411243</ele>
        <time>2015-12-28T10:30:26Z</time>
      </trkpt>
      <trkpt lat="45.48249" lon="5.79171">
        <ele>1280.55655448</ele>
        <time>2015-12-28T10:30:31Z</time>
      </trkpt>
      <trkpt lat="45.48246" lon="5.79163">
        <ele>1280.55655448</ele>
        <time>2015-12-28T10:30:41Z</time>
      </trkpt>
      <trkpt lat="45.48244" lon="5.79157">
        <ele>1274.395634836</ele>
        <time>2015-12-28T10:30:46Z</time>
      </trkpt>
      <trkpt lat="45.48245" lon="5.79148">
        <ele>1274.395634836</ele>
        <time>2015-12-28T10:30:56Z</time>
      </trkpt>
      <trkpt lat="45.48245" lon="5.79146">
        <ele>1274.395634836</ele>
        <time>2015-12-28T10:31:02Z</time>
      </trkpt>
      <trkpt lat="45.48244" lon="5.79146">
        <ele>1274.395634836</ele>
        <time>2015-12-28T10:31:11Z</time>
      </trkpt>
      <trkpt lat="45.48229" lon="5.79141">
        <ele>1266.671666144</ele>
        <time>2015-12-28T10:31:16Z</time>
      </trkpt>
      <trkpt lat="45.48224" lon="5.79116">
        <ele>1258.529796291</ele>
        <time>2015-12-28T10:31:31Z</time>
      </trkpt>
      <trkpt lat="45.48228" lon="5.79095">
        <ele>1250.599823524</ele>
        <time>2015-12-28T10:31:36Z</time>
      </trkpt>
      <trkpt lat="45.48218" lon="5.79066">
        <ele>1242.455782612</ele>
        <time>2015-12-28T10:31:46Z</time>
      </trkpt>
      <trkpt lat="45.48217" lon="5.79056">
        <ele>1242.455782612</ele>
        <time>2015-12-28T10:31:51Z</time>
      </trkpt>
      <trkpt lat="45.4822" lon="5.79032">
        <ele>1233.847526549</ele>
        <time>2015-12-28T10:32:01Z</time>
      </trkpt>
      <trkpt lat="45.48215" lon="5.79026">
        <ele>1233.847526549</ele>
        <time>2015-12-28T10:32:06Z</time>
      </trkpt>
      <trkpt lat="45.48209" lon="5.7902">
        <ele>1225.264902941</ele>
        <time>2015-12-28T10:32:16Z</time>
      </trkpt>
      <trkpt lat="45.48201" lon="5.79025">
        <ele>1225.264902941</ele>
        <time>2015-12-28T10:32:22Z</time>
      </trkpt>
      <trkpt lat="45.48195" lon="5.79023">
        <ele>1232.581336199</ele>
        <time>2015-12-28T10:32:31Z</time>
      </trkpt>
      <trkpt lat="45.48189" lon="5.79019">
        <ele>1232.581336199</ele>
        <time>2015-12-28T10:32:37Z</time>
      </trkpt>
      <trkpt lat="45.48173" lon="5.79017">
        <ele>1224.487845341</ele>
        <time>2015-12-28T10:32:46Z</time>
      </trkpt>
      <trkpt lat="45.4817" lon="5.79016">
        <ele>1224.487845341</ele>
        <time>2015-12-28T10:32:52Z</time>
      </trkpt>
      <trkpt lat="45.48174" lon="5.79001">
        <ele>1215.107552623</ele>
        <time>2015-12-28T10:33:01Z</time>
      </trkpt>
      <trkpt lat="45.48182" lon="5.78991">
        <ele>1205.856390768</ele>
        <time>2015-12-28T10:33:07Z</time>
      </trkpt>
      <trkpt lat="45.48184" lon="5.78982">
        <ele>1205.856390768</ele>
        <time>2015-12-28T10:33:16Z</time>
      </trkpt>
      <trkpt lat="45.48187" lon="5.78968">
        <ele>1197.180908105</ele>
        <time>2015-12-28T10:33:22Z</time>
      </trkpt>
      <trkpt lat="45.48187" lon="5.78936">
        <ele>1189.492852409</ele>
        <time>2015-12-28T10:33:31Z</time>
      </trkpt>
      <trkpt lat="45.48188" lon="5.78913">
        <ele>1182.305870546</ele>
        <time>2015-12-28T10:33:36Z</time>
      </trkpt>
      <trkpt lat="45.48178" lon="5.78879">
        <ele>1173.582261518</ele>
        <time>2015-12-28T10:33:46Z</time>
      </trkpt>
      <trkpt lat="45.48174" lon="5.78876">
        <ele>1173.582261518</ele>
        <time>2015-12-28T10:33:51Z</time>
      </trkpt>
      <trkpt lat="45.48181" lon="5.78825">
        <ele>1162.878960854</ele>
        <time>2015-12-28T10:34:06Z</time>
      </trkpt>
      <trkpt lat="45.48186" lon="5.78805">
        <ele>1153.105061735</ele>
        <time>2015-12-28T10:34:11Z</time>
      </trkpt>
      <trkpt lat="45.48195" lon="5.78766">
        <ele>1144.647045785</ele>
        <time>2015-12-28T10:34:21Z</time>
      </trkpt>
      <trkpt lat="45.48197" lon="5.78752">
        <ele>1136.561763086</ele>
        <time>2015-12-28T10:34:26Z</time>
      </trkpt>
      <trkpt lat="45.48213" lon="5.78721">
        <ele>1129.558959467</ele>
        <time>2015-12-28T10:34:37Z</time>
      </trkpt>
      <trkpt lat="45.48221" lon="5.7871">
        <ele>1123.139746769</ele>
        <time>2015-12-28T10:34:42Z</time>
      </trkpt>
      <trkpt lat="45.48241" lon="5.78693">
        <ele>1115.542676636</ele>
        <time>2015-12-28T10:34:51Z</time>
      </trkpt>
      <trkpt lat="45.48242" lon="5.78693">
        <ele>1115.542676636</ele>
        <time>2015-12-28T10:34:56Z</time>
      </trkpt>
      <trkpt lat="45.48222" lon="5.78691">
        <ele>1109.461770863</ele>
        <time>2015-12-28T10:35:06Z</time>
      </trkpt>
      <trkpt lat="45.48205" lon="5.78699">
        <ele>1103.641452772</ele>
        <time>2015-12-28T10:35:11Z</time>
      </trkpt>
      <trkpt lat="45.48179" lon="5.78709">
        <ele>1098.358220829</ele>
        <time>2015-12-28T10:35:21Z</time>
      </trkpt>
      <trkpt lat="45.48169" lon="5.78704">
        <ele>1094.586791839</ele>
        <time>2015-12-28T10:35:26Z</time>
      </trkpt>
      <trkpt lat="45.48157" lon="5.78706">
        <ele>1092.216770101</ele>
        <time>2015-12-28T10:35:36Z</time>
      </trkpt>
      <trkpt lat="45.48145" lon="5.78708">
        <ele>1088.979811962</ele>
        <time>2015-12-28T10:35:41Z</time>
      </trkpt>
      <trkpt lat="45.48109" lon="5.78695">
        <ele>1085.081992631</ele>
        <time>2015-12-28T10:35:56Z</time>
      </trkpt>
      <trkpt lat="45.48101" lon="5.7869">
        <ele>1081.86860701</ele>
        <time>2015-12-28T10:36:01Z</time>
      </trkpt>
      <trkpt lat="45.48085" lon="5.78677">
        <ele>1079.142744838</ele>
        <time>2015-12-28T10:36:11Z</time>
      </trkpt>
      <trkpt lat="45.48073" lon="5.78668">
        <ele>1077.440836185</ele>
        <time>2015-12-28T10:36:16Z</time>
      </trkpt>
      <trkpt lat="45.4806" lon="5.7864">
        <ele>1076.824425564</ele>
        <time>2015-12-28T10:36:26Z</time>
      </trkpt>
      <trkpt lat="45.48048" lon="5.78631">
        <ele>1076.338482013</ele>
        <time>2015-12-28T10:36:31Z</time>
      </trkpt>
      <trkpt lat="45.48033" lon="5.78616">
        <ele>1076.106357198</ele>
        <time>2015-12-28T10:36:41Z</time>
      </trkpt>
      <trkpt lat="45.48023" lon="5.78609">
        <ele>1075.520934245</ele>
        <time>2015-12-28T10:36:46Z</time>
      </trkpt>
      <trkpt lat="45.48003" lon="5.78592">
        <ele>1074.597035488</ele>
        <time>2015-12-28T10:36:56Z</time>
      </trkpt>
      <trkpt lat="45.47996" lon="5.78579">
        <ele>1073.493400507</ele>
        <time>2015-12-28T10:37:01Z</time>
      </trkpt>
      <trkpt lat="45.47977" lon="5.78554">
        <ele>1073.222262228</ele>
        <time>2015-12-28T10:37:11Z</time>
      </trkpt>
      <trkpt lat="45.47967" lon="5.78544">
        <ele>1072.557509424</ele>
        <time>2015-12-28T10:37:16Z</time>
      </trkpt>
      <trkpt lat="45.47952" lon="5.78516">
        <ele>1071.949475675</ele>
        <time>2015-12-28T10:37:26Z</time>
      </trkpt>
      <trkpt lat="45.47944" lon="5.78511">
        <ele>1071.949475675</ele>
        <time>2015-12-28T10:37:31Z</time>
      </trkpt>
      <trkpt lat="45.47911" lon="5.78494">
        <ele>1070.806553177</ele>
        <time>2015-12-28T10:37:46Z</time>
      </trkpt>
      <trkpt lat="45.47904" lon="5.78491">
        <ele>1070.806553177</ele>
        <time>2015-12-28T10:37:51Z</time>
      </trkpt>
      <trkpt lat="45.47881" lon="5.78479">
        <ele>1068.438083738</ele>
        <time>2015-12-28T10:38:01Z</time>
      </trkpt>
      <trkpt lat="45.47871" lon="5.78467">
        <ele>1066.657593145</ele>
        <time>2015-12-28T10:38:06Z</time>
      </trkpt>
      <trkpt lat="45.47836" lon="5.78453">
        <ele>1064.405760088</ele>
        <time>2015-12-28T10:38:16Z</time>
      </trkpt>
      <trkpt lat="45.47821" lon="5.78448">
        <ele>1061.999548108</ele>
        <time>2015-12-28T10:38:21Z</time>
      </trkpt>
      <trkpt lat="45.47799" lon="5.78436">
        <ele>1060.021444981</ele>
        <time>2015-12-28T10:38:31Z</time>
      </trkpt>
      <trkpt lat="45.47787" lon="5.78432">
        <ele>1058.577775364</ele>
        <time>2015-12-28T10:38:36Z</time>
      </trkpt>
      <trkpt lat="45.47766" lon="5.78424">
        <ele>1057.189277476</ele>
        <time>2015-12-28T10:38:46Z</time>
      </trkpt>
      <trkpt lat="45.47758" lon="5.7842">
        <ele>1057.189277476</ele>
        <time>2015-12-28T10:38:51Z</time>
      </trkpt>
      <trkpt lat="45.4773" lon="5.78413">
        <ele>1054.691359501</ele>
        <time>2015-12-28T10:39:01Z</time>
      </trkpt>
      <trkpt lat="45.47716" lon="5.78408">
        <ele>1052.602273623</ele>
        <time>2015-12-28T10:39:06Z</time>
      </trkpt>
      <trkpt lat="45.47674" lon="5.78366">
        <ele>1050.454334799</ele>
        <time>2015-12-28T10:39:21Z</time>
      </trkpt>
      <trkpt lat="45.47667" lon="5.78355">
        <ele>1048.535121889</ele>
        <time>2015-12-28T10:39:26Z</time>
      </trkpt>
      <trkpt lat="45.47635" lon="5.7834">
        <ele>1046.966524395</ele>
        <time>2015-12-28T10:39:36Z</time>
      </trkpt>
      <trkpt lat="45.47627" lon="5.78327">
        <ele>1045.716574915</ele>
        <time>2015-12-28T10:39:41Z</time>
      </trkpt>
      <trkpt lat="45.4761" lon="5.78296">
        <ele>1044.754956395</ele>
        <time>2015-12-28T10:39:51Z</time>
      </trkpt>
      <trkpt lat="45.47594" lon="5.78299">
        <ele>1043.620637456</ele>
        <time>2015-12-28T10:39:56Z</time>
      </trkpt>
      <trkpt lat="45.47582" lon="5.7825">
        <ele>1040.446029526</ele>
        <time>2015-12-28T10:40:06Z</time>
      </trkpt>
      <trkpt lat="45.47567" lon="5.78247">
        <ele>1037.109440484</ele>
        <time>2015-12-28T10:40:11Z</time>
      </trkpt>
      <trkpt lat="45.47549" lon="5.78237">
        <ele>1033.046068945</ele>
        <time>2015-12-28T10:40:21Z</time>
      </trkpt>
      <trkpt lat="45.47544" lon="5.78217">
        <ele>1028.743601498</ele>
        <time>2015-12-28T10:40:26Z</time>
      </trkpt>
      <trkpt lat="45.47534" lon="5.78194">
        <ele>1023.934176758</ele>
        <time>2015-12-28T10:40:36Z</time>
      </trkpt>
      <trkpt lat="45.47525" lon="5.78181">
        <ele>1019.668175562</ele>
        <time>2015-12-28T10:40:41Z</time>
      </trkpt>
      <trkpt lat="45.47518" lon="5.78151">
        <ele>1017.493864471</ele>
        <time>2015-12-28T10:40:51Z</time>
      </trkpt>
      <trkpt lat="45.47509" lon="5.78141">
        <ele>1015.813686476</ele>
        <time>2015-12-28T10:40:56Z</time>
      </trkpt>
      <trkpt lat="45.47488" lon="5.78127">
        <ele>1013.434382143</ele>
        <time>2015-12-28T10:41:06Z</time>
      </trkpt>
      <trkpt lat="45.4748" lon="5.7812">
        <ele>1013.434382143</ele>
        <time>2015-12-28T10:41:11Z</time>
      </trkpt>
      <trkpt lat="45.47472" lon="5.7811">
        <ele>1009.540632563</ele>
        <time>2015-12-28T10:41:21Z</time>
      </trkpt>
      <trkpt lat="45.47472" lon="5.78107">
        <ele>1009.540632563</ele>
        <time>2015-12-28T10:41:26Z</time>
      </trkpt>
      <trkpt lat="45.47472" lon="5.78107">
        <ele>1009.540632563</ele>
        <time>2015-12-28T10:41:41Z</time>
      </trkpt>
      <trkpt lat="45.47471" lon="5.78106">
        <ele>1009.540632563</ele>
        <time>2015-12-28T10:41:46Z</time>
      </trkpt>
      <trkpt lat="45.47468" lon="5.78097">
        <ele>1005.54302366</ele>
        <time>2015-12-28T10:41:56Z</time>
      </trkpt>
      <trkpt lat="45.47465" lon="5.78091">
        <ele>1005.54302366</ele>
        <time>2015-12-28T10:42:01Z</time>
      </trkpt>
      <trkpt lat="45.47461" lon="5.78073">
        <ele>1002.604789914</ele>
        <time>2015-12-28T10:42:11Z</time>
      </trkpt>
      <trkpt lat="45.47454" lon="5.78069">
        <ele>1002.604789914</ele>
        <time>2015-12-28T10:42:16Z</time>
      </trkpt>
      <trkpt lat="45.47444" lon="5.78052">
        <ele>998.19804154</ele>
        <time>2015-12-28T10:42:26Z</time>
      </trkpt>
      <trkpt lat="45.47445" lon="5.78045">
        <ele>998.19804154</ele>
        <time>2015-12-28T10:42:31Z</time>
      </trkpt>
      <trkpt lat="45.47445" lon="5.7804">
        <ele>998.19804154</ele>
        <time>2015-12-28T10:42:41Z</time>
      </trkpt>
      <trkpt lat="45.47442" lon="5.78015">
        <ele>992.722879962</ele>
        <time>2015-12-28T10:42:46Z</time>
      </trkpt>
      <trkpt lat="45.4744" lon="5.77977">
        <ele>987.129502542</ele>
        <time>2015-12-28T10:42:56Z</time>
      </trkpt>
      <trkpt lat="45.47439" lon="5.77966">
        <ele>987.129502542</ele>
        <time>2015-12-28T10:43:01Z</time>
      </trkpt>
      <trkpt lat="45.47435" lon="5.77928">
        <ele>981.14577303</ele>
        <time>2015-12-28T10:43:16Z</time>
      </trkpt>
      <trkpt lat="45.47433" lon="5.77896">
        <ele>975.097087115</ele>
        <time>2015-12-28T10:43:22Z</time>
      </trkpt>
      <trkpt lat="45.4743" lon="5.77886">
        <ele>975.097087115</ele>
        <time>2015-12-28T10:43:27Z</time>
      </trkpt>
      <trkpt lat="45.47425" lon="5.77878">
        <ele>969.285096457</ele>
        <time>2015-12-28T10:43:32Z</time>
      </trkpt>
      <trkpt lat="45.47419" lon="5.77866">
        <ele>963.700361765</ele>
        <time>2015-12-28T10:43:37Z</time>
      </trkpt>
      <trkpt lat="45.47394" lon="5.77827">
        <ele>990.614391385</ele>
        <time>2015-12-28T10:43:46Z</time>
      </trkpt>
      <trkpt lat="45.47382" lon="5.77803">
        <ele>999.422884726</ele>
        <time>2015-12-28T10:43:52Z</time>
      </trkpt>
      <trkpt lat="45.47368" lon="5.77781">
        <ele>1003.672388095</ele>
        <time>2015-12-28T10:44:02Z</time>
      </trkpt>
      <trkpt lat="45.4735" lon="5.77768">
        <ele>1003.677867237</ele>
        <time>2015-12-28T10:44:07Z</time>
      </trkpt>
      <trkpt lat="45.47332" lon="5.77753">
        <ele>1001.472659029</ele>
        <time>2015-12-28T10:44:16Z</time>
      </trkpt>
      <trkpt lat="45.47323" lon="5.77742">
        <ele>997.217881891</ele>
        <time>2015-12-28T10:44:21Z</time>
      </trkpt>
      <trkpt lat="45.47312" lon="5.77722">
        <ele>991.78939291</ele>
        <time>2015-12-28T10:44:34Z</time>
      </trkpt>
      <trkpt lat="45.47296" lon="5.77716">
        <ele>985.858130053</ele>
        <time>2015-12-28T10:44:37Z</time>
      </trkpt>
      <trkpt lat="45.47271" lon="5.77712">
        <ele>978.318019482</ele>
        <time>2015-12-28T10:44:47Z</time>
      </trkpt>
      <trkpt lat="45.47266" lon="5.77713">
        <ele>978.318019482</ele>
        <time>2015-12-28T10:44:52Z</time>
      </trkpt>
      <trkpt lat="45.4725" lon="5.7771">
        <ele>970.742904872</ele>
        <time>2015-12-28T10:45:03Z</time>
      </trkpt>
      <trkpt lat="45.47245" lon="5.77706">
        <ele>970.742904872</ele>
        <time>2015-12-28T10:45:07Z</time>
      </trkpt>
      <trkpt lat="45.47212" lon="5.7769">
        <ele>960.411987917</ele>
        <time>2015-12-28T10:45:22Z</time>
      </trkpt>
      <trkpt lat="45.47187" lon="5.77675">
        <ele>947.406104804</ele>
        <time>2015-12-28T10:45:37Z</time>
      </trkpt>
      <trkpt lat="45.47177" lon="5.77658">
        <ele>936.275071749</ele>
        <time>2015-12-28T10:45:42Z</time>
      </trkpt>
      <trkpt lat="45.47158" lon="5.77642">
        <ele>926.617562055</ele>
        <time>2015-12-28T10:45:52Z</time>
      </trkpt>
      <trkpt lat="45.47155" lon="5.77577">
        <ele>916.183985758</ele>
        <time>2015-12-28T10:46:08Z</time>
      </trkpt>
      <trkpt lat="45.47157" lon="5.77561">
        <ele>906.350628186</ele>
        <time>2015-12-28T10:46:11Z</time>
      </trkpt>
      <trkpt lat="45.47163" lon="5.77513">
        <ele>896.949607573</ele>
        <time>2015-12-28T10:46:22Z</time>
      </trkpt>
      <trkpt lat="45.47166" lon="5.7749">
        <ele>888.256185516</ele>
        <time>2015-12-28T10:46:26Z</time>
      </trkpt>
      <trkpt lat="45.47169" lon="5.7746">
        <ele>880.090742314</ele>
        <time>2015-12-28T10:46:36Z</time>
      </trkpt>
      <trkpt lat="45.47171" lon="5.77438">
        <ele>872.573228036</ele>
        <time>2015-12-28T10:46:41Z</time>
      </trkpt>
      <trkpt lat="45.47176" lon="5.77388">
        <ele>865.668470311</ele>
        <time>2015-12-28T10:46:56Z</time>
      </trkpt>
      <trkpt lat="45.47179" lon="5.77375">
        <ele>846.804077626</ele>
        <time>2015-12-28T10:47:01Z</time>
      </trkpt>
      <trkpt lat="45.47184" lon="5.77355">
        <ele>839.239239302</ele>
        <time>2015-12-28T10:47:12Z</time>
      </trkpt>
      <trkpt lat="45.47184" lon="5.77351">
        <ele>839.239239302</ele>
        <time>2015-12-28T10:47:17Z</time>
      </trkpt>
      <trkpt lat="45.47201" lon="5.77326">
        <ele>833.364374064</ele>
        <time>2015-12-28T10:47:27Z</time>
      </trkpt>
      <trkpt lat="45.47207" lon="5.77327">
        <ele>833.364374064</ele>
        <time>2015-12-28T10:47:32Z</time>
      </trkpt>
      <trkpt lat="45.47227" lon="5.77331">
        <ele>829.781945371</ele>
        <time>2015-12-28T10:47:42Z</time>
      </trkpt>
      <trkpt lat="45.47238" lon="5.77335">
        <ele>826.449266196</ele>
        <time>2015-12-28T10:47:46Z</time>
      </trkpt>
      <trkpt lat="45.47253" lon="5.77346">
        <ele>823.634238528</ele>
        <time>2015-12-28T10:47:57Z</time>
      </trkpt>
      <trkpt lat="45.47258" lon="5.77334">
        <ele>820.862680646</ele>
        <time>2015-12-28T10:48:02Z</time>
      </trkpt>
      <trkpt lat="45.47261" lon="5.77327">
        <ele>820.862680646</ele>
        <time>2015-12-28T10:48:12Z</time>
      </trkpt>
      <trkpt lat="45.47261" lon="5.77325">
        <ele>820.862680646</ele>
        <time>2015-12-28T10:48:16Z</time>
      </trkpt>
      <trkpt lat="45.4725" lon="5.77317">
        <ele>818.415322413</ele>
        <time>2015-12-28T10:48:27Z</time>
      </trkpt>
      <trkpt lat="45.47251" lon="5.77316">
        <ele>818.415322413</ele>
        <time>2015-12-28T10:48:31Z</time>
      </trkpt>
      <trkpt lat="45.47245" lon="5.77294">
        <ele>816.839270659</ele>
        <time>2015-12-28T10:48:47Z</time>
      </trkpt>
      <trkpt lat="45.47243" lon="5.77291">
        <ele>816.839270659</ele>
        <time>2015-12-28T10:48:51Z</time>
      </trkpt>
      <trkpt lat="45.47239" lon="5.77284">
        <ele>814.909391707</ele>
        <time>2015-12-28T10:49:03Z</time>
      </trkpt>
      <trkpt lat="45.47241" lon="5.77277">
        <ele>814.909391707</ele>
        <time>2015-12-28T10:49:07Z</time>
      </trkpt>
      <trkpt lat="45.4724" lon="5.77269">
        <ele>811.923642875</ele>
        <time>2015-12-28T10:49:17Z</time>
      </trkpt>
      <trkpt lat="45.4724" lon="5.77269">
        <ele>811.923642875</ele>
        <time>2015-12-28T10:49:21Z</time>
      </trkpt>
      <trkpt lat="45.47243" lon="5.77254">
        <ele>808.675430788</ele>
        <time>2015-12-28T10:49:32Z</time>
      </trkpt>
      <trkpt lat="45.47246" lon="5.77248">
        <ele>808.675430788</ele>
        <time>2015-12-28T10:49:37Z</time>
      </trkpt>
      <trkpt lat="45.47247" lon="5.77229">
        <ele>806.909232311</ele>
        <time>2015-12-28T10:49:46Z</time>
      </trkpt>
      <trkpt lat="45.47247" lon="5.77222">
        <ele>806.909232311</ele>
        <time>2015-12-28T10:49:52Z</time>
      </trkpt>
      <trkpt lat="45.47247" lon="5.77196">
        <ele>803.481417846</ele>
        <time>2015-12-28T10:50:02Z</time>
      </trkpt>
      <trkpt lat="45.47247" lon="5.77176">
        <ele>800.383622153</ele>
        <time>2015-12-28T10:50:07Z</time>
      </trkpt>
      <trkpt lat="45.47249" lon="5.7717">
        <ele>800.383622153</ele>
        <time>2015-12-28T10:50:17Z</time>
      </trkpt>
      <trkpt lat="45.47249" lon="5.77169">
        <ele>800.383622153</ele>
        <time>2015-12-28T10:50:21Z</time>
      </trkpt>
      <trkpt lat="45.47257" lon="5.77139">
        <ele>796.57794386</ele>
        <time>2015-12-28T10:50:33Z</time>
      </trkpt>
      <trkpt lat="45.47267" lon="5.77126">
        <ele>792.978093928</ele>
        <time>2015-12-28T10:50:37Z</time>
      </trkpt>
      <trkpt lat="45.47266" lon="5.771">
        <ele>789.42126112</ele>
        <time>2015-12-28T10:50:50Z</time>
      </trkpt>
      <trkpt lat="45.47266" lon="5.77081">
        <ele>784.315327976</ele>
        <time>2015-12-28T10:50:52Z</time>
      </trkpt>
      <trkpt lat="45.47287" lon="5.77064">
        <ele>779.792233698</ele>
        <time>2015-12-28T10:51:04Z</time>
      </trkpt>
      <trkpt lat="45.47295" lon="5.77073">
        <ele>775.663987444</ele>
        <time>2015-12-28T10:51:07Z</time>
      </trkpt>
      <trkpt lat="45.47313" lon="5.77082">
        <ele>772.764070038</ele>
        <time>2015-12-28T10:51:17Z</time>
      </trkpt>
      <trkpt lat="45.4732" lon="5.77075">
        <ele>772.764070038</ele>
        <time>2015-12-28T10:51:22Z</time>
      </trkpt>
      <trkpt lat="45.47341" lon="5.77065">
        <ele>770.852513414</ele>
        <time>2015-12-28T10:51:32Z</time>
      </trkpt>
      <trkpt lat="45.47348" lon="5.77065">
        <ele>770.852513414</ele>
        <time>2015-12-28T10:51:37Z</time>
      </trkpt>
      <trkpt lat="45.47371" lon="5.77064">
        <ele>768.839554958</ele>
        <time>2015-12-28T10:51:46Z</time>
      </trkpt>
      <trkpt lat="45.47376" lon="5.77065">
        <ele>768.839554958</ele>
        <time>2015-12-28T10:51:52Z</time>
      </trkpt>
      <trkpt lat="45.47396" lon="5.77063">
        <ele>765.283469596</ele>
        <time>2015-12-28T10:52:02Z</time>
      </trkpt>
      <trkpt lat="45.47406" lon="5.77063">
        <ele>762.311487832</ele>
        <time>2015-12-28T10:52:07Z</time>
      </trkpt>
      <trkpt lat="45.47438" lon="5.77063">
        <ele>758.866665956</ele>
        <time>2015-12-28T10:52:21Z</time>
      </trkpt>
      <trkpt lat="45.47468" lon="5.77063">
        <ele>755.556325926</ele>
        <time>2015-12-28T10:52:36Z</time>
      </trkpt>
      <trkpt lat="45.47512" lon="5.77071">
        <ele>751.934101377</ele>
        <time>2015-12-28T10:52:52Z</time>
      </trkpt>
      <trkpt lat="45.47518" lon="5.77069">
        <ele>751.934101377</ele>
        <time>2015-12-28T10:52:57Z</time>
      </trkpt>
      <trkpt lat="45.47546" lon="5.77076">
        <ele>748.163821363</ele>
        <time>2015-12-28T10:53:08Z</time>
      </trkpt>
      <trkpt lat="45.47558" lon="5.7708">
        <ele>744.397785023</ele>
        <time>2015-12-28T10:53:12Z</time>
      </trkpt>
      <trkpt lat="45.47589" lon="5.77101">
        <ele>739.336069638</ele>
        <time>2015-12-28T10:53:21Z</time>
      </trkpt>
      <trkpt lat="45.47602" lon="5.77104">
        <ele>734.516078184</ele>
        <time>2015-12-28T10:53:28Z</time>
      </trkpt>
      <trkpt lat="45.47628" lon="5.77112">
        <ele>729.920569813</ele>
        <time>2015-12-28T10:53:37Z</time>
      </trkpt>
      <trkpt lat="45.47639" lon="5.77116">
        <ele>725.821240076</ele>
        <time>2015-12-28T10:53:42Z</time>
      </trkpt>
      <trkpt lat="45.47659" lon="5.77119">
        <ele>722.756730105</ele>
        <time>2015-12-28T10:53:51Z</time>
      </trkpt>
      <trkpt lat="45.47668" lon="5.7712">
        <ele>720.358617414</ele>
        <time>2015-12-28T10:53:59Z</time>
      </trkpt>
      <trkpt lat="45.47701" lon="5.77141">
        <ele>717.563197154</ele>
        <time>2015-12-28T10:54:07Z</time>
      </trkpt>
      <trkpt lat="45.47709" lon="5.77145">
        <ele>715.259550202</ele>
        <time>2015-12-28T10:54:12Z</time>
      </trkpt>
      <trkpt lat="45.47745" lon="5.77151">
        <ele>712.108494166</ele>
        <time>2015-12-28T10:54:27Z</time>
      </trkpt>
      <trkpt lat="45.47752" lon="5.77152">
        <ele>712.108494166</ele>
        <time>2015-12-28T10:54:32Z</time>
      </trkpt>
      <trkpt lat="45.47771" lon="5.77144">
        <ele>708.601035319</ele>
        <time>2015-12-28T10:54:42Z</time>
      </trkpt>
      <trkpt lat="45.47775" lon="5.77141">
        <ele>708.601035319</ele>
        <time>2015-12-28T10:54:47Z</time>
      </trkpt>
      <trkpt lat="45.47788" lon="5.77146">
        <ele>702.887434236</ele>
        <time>2015-12-28T10:54:57Z</time>
      </trkpt>
      <trkpt lat="45.47791" lon="5.77142">
        <ele>702.887434236</ele>
        <time>2015-12-28T10:55:01Z</time>
      </trkpt>
      <trkpt lat="45.47796" lon="5.7713">
        <ele>697.583454281</ele>
        <time>2015-12-28T10:55:13Z</time>
      </trkpt>
      <trkpt lat="45.47796" lon="5.77128">
        <ele>697.583454281</ele>
        <time>2015-12-28T10:55:17Z</time>
      </trkpt>
      <trkpt lat="45.47798" lon="5.77119">
        <ele>697.583454281</ele>
        <time>2015-12-28T10:55:27Z</time>
      </trkpt>
      <trkpt lat="45.478" lon="5.77113">
        <ele>692.085310701</ele>
        <time>2015-12-28T10:55:32Z</time>
      </trkpt>
      <trkpt lat="45.478" lon="5.77103">
        <ele>692.085310701</ele>
        <time>2015-12-28T10:55:42Z</time>
      </trkpt>
      <trkpt lat="45.47798" lon="5.77099">
        <ele>686.987081057</ele>
        <time>2015-12-28T10:55:46Z</time>
      </trkpt>
      <trkpt lat="45.47795" lon="5.77095">
        <ele>686.987081057</ele>
        <time>2015-12-28T10:55:57Z</time>
      </trkpt>
      <trkpt lat="45.47787" lon="5.77083">
        <ele>681.973473651</ele>
        <time>2015-12-28T10:56:02Z</time>
      </trkpt>
      <trkpt lat="45.47779" lon="5.77046">
        <ele>676.031610904</ele>
        <time>2015-12-28T10:56:17Z</time>
      </trkpt>
      <trkpt lat="45.47772" lon="5.77042">
        <ele>676.031610904</ele>
        <time>2015-12-28T10:56:22Z</time>
      </trkpt>
      <trkpt lat="45.47767" lon="5.77026">
        <ele>669.810879593</ele>
        <time>2015-12-28T10:56:33Z</time>
      </trkpt>
      <trkpt lat="45.47764" lon="5.77023">
        <ele>669.810879593</ele>
        <time>2015-12-28T10:56:37Z</time>
      </trkpt>
      <trkpt lat="45.47764" lon="5.77019">
        <ele>669.810879593</ele>
        <time>2015-12-28T10:56:49Z</time>
      </trkpt>
      <trkpt lat="45.47763" lon="5.77016">
        <ele>669.810879593</ele>
        <time>2015-12-28T10:56:51Z</time>
      </trkpt>
      <trkpt lat="45.47758" lon="5.76981">
        <ele>663.193206117</ele>
        <time>2015-12-28T10:57:02Z</time>
      </trkpt>
      <trkpt lat="45.47755" lon="5.76965">
        <ele>657.079082686</ele>
        <time>2015-12-28T10:57:07Z</time>
      </trkpt>
      <trkpt lat="45.47752" lon="5.76948">
        <ele>650.860310966</ele>
        <time>2015-12-28T10:57:17Z</time>
      </trkpt>
      <trkpt lat="45.47752" lon="5.76934">
        <ele>644.838298735</ele>
        <time>2015-12-28T10:57:22Z</time>
      </trkpt>
      <trkpt lat="45.47734" lon="5.76907">
        <ele>636.985932468</ele>
        <time>2015-12-28T10:57:32Z</time>
      </trkpt>
      <trkpt lat="45.47725" lon="5.76895">
        <ele>630.185747581</ele>
        <time>2015-12-28T10:57:37Z</time>
      </trkpt>
      <trkpt lat="45.47722" lon="5.76876">
        <ele>622.926272909</ele>
        <time>2015-12-28T10:57:47Z</time>
      </trkpt>
      <trkpt lat="45.47722" lon="5.76869">
        <ele>622.926272909</ele>
        <time>2015-12-28T10:57:51Z</time>
      </trkpt>
      <trkpt lat="45.47715" lon="5.76852">
        <ele>616.834595123</ele>
        <time>2015-12-28T10:58:02Z</time>
      </trkpt>
      <trkpt lat="45.47714" lon="5.7685">
        <ele>616.834595123</ele>
        <time>2015-12-28T10:58:07Z</time>
      </trkpt>
      <trkpt lat="45.47712" lon="5.76821">
        <ele>609.812108885</ele>
        <time>2015-12-28T10:58:21Z</time>
      </trkpt>
      <trkpt lat="45.47713" lon="5.76806">
        <ele>603.231416014</ele>
        <time>2015-12-28T10:58:37Z</time>
      </trkpt>
      <trkpt lat="45.47712" lon="5.76805">
        <ele>603.231416014</ele>
        <time>2015-12-28T10:58:41Z</time>
      </trkpt>
      <trkpt lat="45.47717" lon="5.76784">
        <ele>595.913024573</ele>
        <time>2015-12-28T10:58:51Z</time>
      </trkpt>
      <trkpt lat="45.47717" lon="5.76778">
        <ele>595.913024573</ele>
        <time>2015-12-28T10:58:56Z</time>
      </trkpt>
      <trkpt lat="45.47717" lon="5.76757">
        <ele>587.342455346</ele>
        <time>2015-12-28T10:59:07Z</time>
      </trkpt>
      <trkpt lat="45.47716" lon="5.76754">
        <ele>587.342455346</ele>
        <time>2015-12-28T10:59:11Z</time>
      </trkpt>
      <trkpt lat="45.47708" lon="5.76742">
        <ele>577.622817298</ele>
        <time>2015-12-28T10:59:22Z</time>
      </trkpt>
      <trkpt lat="45.47707" lon="5.76738">
        <ele>577.622817298</ele>
        <time>2015-12-28T10:59:27Z</time>
      </trkpt>
      <trkpt lat="45.47695" lon="5.76726">
        <ele>567.14090739</ele>
        <time>2015-12-28T10:59:37Z</time>
      </trkpt>
      <trkpt lat="45.47696" lon="5.76719">
        <ele>567.14090739</ele>
        <time>2015-12-28T10:59:42Z</time>
      </trkpt>
      <trkpt lat="45.4769" lon="5.7667">
        <ele>557.98637425</ele>
        <time>2015-12-28T10:59:58Z</time>
      </trkpt>
      <trkpt lat="45.47692" lon="5.76647">
        <ele>548.920961371</ele>
        <time>2015-12-28T11:00:02Z</time>
      </trkpt>
      <trkpt lat="45.47679" lon="5.76621">
        <ele>541.679096672</ele>
        <time>2015-12-28T11:00:12Z</time>
      </trkpt>
      <trkpt lat="45.47674" lon="5.766">
        <ele>535.124308355</ele>
        <time>2015-12-28T11:00:16Z</time>
      </trkpt>
      <trkpt lat="45.47671" lon="5.76586">
        <ele>530.507198749</ele>
        <time>2015-12-28T11:00:26Z</time>
      </trkpt>
      <trkpt lat="45.47669" lon="5.76575">
        <ele>530.507198749</ele>
        <time>2015-12-28T11:00:33Z</time>
      </trkpt>
      <trkpt lat="45.4767" lon="5.76549">
        <ele>524.80158736</ele>
        <time>2015-12-28T11:00:42Z</time>
      </trkpt>
      <trkpt lat="45.4767" lon="5.76544">
        <ele>524.80158736</ele>
        <time>2015-12-28T11:00:46Z</time>
      </trkpt>
      <trkpt lat="45.47678" lon="5.76526">
        <ele>520.826746024</ele>
        <time>2015-12-28T11:00:57Z</time>
      </trkpt>
      <trkpt lat="45.47678" lon="5.76519">
        <ele>520.826746024</ele>
        <time>2015-12-28T11:01:02Z</time>
      </trkpt>
      <trkpt lat="45.47669" lon="5.76499">
        <ele>518.883996778</ele>
        <time>2015-12-28T11:01:11Z</time>
      </trkpt>
      <trkpt lat="45.47666" lon="5.76498">
        <ele>518.883996778</ele>
        <time>2015-12-28T11:01:16Z</time>
      </trkpt>
      <trkpt lat="45.47664" lon="5.76497">
        <ele>518.883996778</ele>
        <time>2015-12-28T11:01:21Z</time>
      </trkpt>
    </trkseg>
  </trk>
</gpx>